Time,TemperatureF,DewpointF,PressureIn,WindDirection,WindDirectionDegrees,WindSpeedMPH,WindSpeedGustMPH,Humidity,HourlyPrecipIn,Conditions,Clouds,dailyrainin,SoftwareType,DateUTC
2013-03-11 00:00:00,35.4,29.2,29.59,SSW,202,0.0,0.0,78,0.00,,---,0.00,VWS V13.01,2013-03-11 04:00:00,
2013-03-11 00:05:00,35.4,29.2,29.59,SSE,158,0.0,0.0,78,0.00,,---,0.00,VWS V13.01,2013-03-11 04:05:00,
2013-03-11 00:10:00,35.4,29.2,29.59,SSE,158,0.0,0.0,78,0.00,,---,0.00,VWS V13.01,2013-03-11 04:10:00,
2013-03-11 00:15:00,35.4,29.2,29.59,SSE,158,2.0,2.0,78,0.00,,---,0.00,VWS V13.01,2013-03-11 04:15:00,
2013-03-11 00:20:00,35.4,29.2,29.59,SSE,158,0.0,0.0,78,0.00,,---,0.00,VWS V13.01,2013-03-11 04:20:00,
2013-03-11 00:21:00,35.4,29.2,29.59,SSE,158,0.0,0.0,78,0.00,,---,0.00,VWS V13.01,2013-03-11 04:21:00,
2013-03-11 00:25:00,35.4,29.2,29.59,SSE,158,0.9,0.9,78,0.00,,---,0.00,VWS V13.01,2013-03-11 04:25:00,
2013-03-11 00:26:00,35.4,29.2,29.59,SSE,158,0.9,0.9,78,0.00,,---,0.00,VWS V13.01,2013-03-11 04:26:00,
2013-03-11 00:30:00,35.4,29.2,29.59,SSE,158,0.9,0.9,78,0.00,,---,0.00,VWS V13.01,2013-03-11 04:30:00,
2013-03-11 00:31:00,35.4,29.2,29.59,SSE,158,2.7,2.7,78,0.00,,---,0.00,VWS V13.01,2013-03-11 04:31:00,
2013-03-11 00:35:00,35.6,29.4,29.59,South,180,0.0,0.0,78,0.00,,---,0.00,VWS V13.01,2013-03-11 04:35:00,
2013-03-11 00:36:00,35.6,29.4,29.59,South,180,0.0,0.0,78,0.00,,---,0.00,VWS V13.01,2013-03-11 04:36:00,
2013-03-11 00:37:00,35.6,29.4,29.59,SE,135,2.0,2.0,78,0.00,,---,0.00,VWS V13.01,2013-03-11 04:37:00,
2013-03-11 00:40:00,35.6,29.4,29.59,South,180,0.0,0.0,78,0.00,,---,0.00,VWS V13.01,2013-03-11 04:40:00,
2013-03-11 00:41:00,35.6,29.4,29.59,South,180,0.0,0.0,78,0.00,,---,0.00,VWS V13.01,2013-03-11 04:41:00,
2013-03-11 00:42:00,35.6,29.4,29.59,SSW,202,1.1,1.1,78,0.00,,---,0.00,VWS V13.01,2013-03-11 04:42:00,
2013-03-11 00:46:00,35.6,29.4,29.59,SE,135,0.0,0.0,78,0.00,,---,0.00,VWS V13.01,2013-03-11 04:46:00,
2013-03-11 00:47:00,35.6,29.4,29.59,WSW,248,0.0,0.0,78,0.00,,---,0.00,VWS V13.01,2013-03-11 04:47:00,
2013-03-11 00:51:00,35.6,29.4,29.59,SSW,202,0.0,0.0,78,0.00,,---,0.00,VWS V13.01,2013-03-11 04:51:00,
2013-03-11 00:52:00,35.6,29.4,29.59,SSW,202,0.0,0.0,78,0.00,,---,0.00,VWS V13.01,2013-03-11 04:52:00,
2013-03-11 00:53:00,35.6,29.4,29.59,South,180,0.9,0.9,78,0.00,,---,0.00,VWS V13.01,2013-03-11 04:53:00,
2013-03-11 00:56:00,35.6,29.4,29.59,WSW,248,0.0,0.0,78,0.00,,---,0.00,VWS V13.01,2013-03-11 04:56:00,
2013-03-11 00:57:00,35.6,29.4,29.59,WSW,248,0.0,0.0,78,0.00,,---,0.00,VWS V13.01,2013-03-11 04:57:00,
2013-03-11 00:58:00,35.6,29.4,29.59,SSE,158,0.0,0.0,78,0.00,,---,0.00,VWS V13.01,2013-03-11 04:58:00,
2013-03-11 01:03:00,35.6,29.4,29.59,South,180,0.0,0.0,78,0.00,,---,0.00,VWS V13.01,2013-03-11 05:03:00,
2013-03-11 01:08:00,35.6,29.4,29.59,South,180,0.0,0.0,78,0.00,,---,0.00,VWS V13.01,2013-03-11 05:08:00,
2013-03-11 01:13:00,35.6,29.7,29.59,South,180,1.1,1.1,79,0.00,,---,0.00,VWS V13.01,2013-03-11 05:13:00,
2013-03-11 01:14:00,35.6,29.7,29.59,SSE,158,0.9,0.9,79,0.00,,---,0.00,VWS V13.01,2013-03-11 05:14:00,
2013-03-11 01:18:00,35.6,29.7,29.59,SSW,202,0.0,0.0,79,0.00,,---,0.00,VWS V13.01,2013-03-11 05:18:00,
2013-03-11 01:19:00,35.6,29.7,29.59,SSW,202,0.0,0.0,79,0.00,,---,0.00,VWS V13.01,2013-03-11 05:19:00,
2013-03-11 01:23:00,35.6,29.7,29.59,SSE,158,1.3,1.3,79,0.00,,---,0.00,VWS V13.01,2013-03-11 05:23:00,
2013-03-11 01:24:00,35.6,29.7,29.59,SE,135,2.2,2.2,79,0.00,,---,0.00,VWS V13.01,2013-03-11 05:24:00,
2013-03-11 01:28:00,35.6,29.7,29.59,South,180,0.0,1.1,79,0.00,,---,0.00,VWS V13.01,2013-03-11 05:28:00,
2013-03-11 01:29:00,35.6,29.7,29.59,South,180,0.0,1.1,79,0.00,,---,0.00,VWS V13.01,2013-03-11 05:29:00,
2013-03-11 01:30:00,35.6,29.7,29.59,South,180,0.0,0.0,79,0.00,,---,0.00,VWS V13.01,2013-03-11 05:30:00,
2013-03-11 01:34:00,35.6,29.7,29.59,South,180,0.0,0.0,79,0.00,,---,0.00,VWS V13.01,2013-03-11 05:34:00,
2013-03-11 01:35:00,35.6,29.7,29.59,SSE,158,0.9,0.9,79,0.00,,---,0.00,VWS V13.01,2013-03-11 05:35:00,
2013-03-11 01:39:00,35.6,29.7,29.59,SW,225,0.0,0.0,79,0.00,,---,0.00,VWS V13.01,2013-03-11 05:39:00,
2013-03-11 01:40:00,35.6,29.7,29.59,SW,225,0.0,0.0,79,0.00,,---,0.00,VWS V13.01,2013-03-11 05:40:00,
2013-03-11 01:44:00,35.6,29.7,29.56,SW,225,0.0,0.0,79,0.00,,---,0.00,VWS V13.01,2013-03-11 05:44:00,
2013-03-11 01:46:00,35.6,29.7,29.56,SE,135,0.0,0.0,79,0.00,,---,0.00,VWS V13.01,2013-03-11 05:46:00,
2013-03-11 01:49:00,35.6,29.7,29.56,SSE,158,1.1,1.1,79,0.00,,---,0.00,VWS V13.01,2013-03-11 05:49:00,
2013-03-11 01:52:00,35.6,29.7,29.56,South,180,0.0,0.0,79,0.00,,---,0.00,VWS V13.01,2013-03-11 05:52:00,
2013-03-11 01:54:00,35.6,29.7,29.56,South,180,0.0,0.0,79,0.00,,---,0.00,VWS V13.01,2013-03-11 05:54:00,
2013-03-11 01:55:00,35.6,29.7,29.56,South,180,0.0,0.0,79,0.00,,---,0.00,VWS V13.01,2013-03-11 05:55:00,
2013-03-11 01:57:00,35.6,29.7,29.56,SSW,202,0.0,0.0,79,0.00,,---,0.00,VWS V13.01,2013-03-11 05:57:00,
2013-03-11 01:59:00,35.6,29.7,29.56,SSW,202,0.0,0.0,79,0.00,,---,0.00,VWS V13.01,2013-03-11 05:59:00,
2013-03-11 02:00:00,35.6,29.7,29.59,SSW,202,0.0,0.0,79,0.00,,---,0.00,VWS V13.01,2013-03-11 06:00:00,
2013-03-11 02:02:00,35.6,29.7,29.59,South,180,1.1,1.1,79,0.00,,---,0.00,VWS V13.01,2013-03-11 06:02:00,
2013-03-11 02:04:00,35.4,29.6,29.59,South,180,2.0,2.0,79,0.00,,---,0.00,VWS V13.01,2013-03-11 06:04:00,
2013-03-11 02:05:00,35.4,29.6,29.59,SSE,158,1.3,2.0,79,0.00,,---,0.00,VWS V13.01,2013-03-11 06:05:00,
2013-03-11 02:07:00,35.4,29.6,29.56,SSE,158,0.9,2.0,79,0.00,,---,0.00,VWS V13.01,2013-03-11 06:07:00,
2013-03-11 02:09:00,35.4,29.6,29.56,South,180,1.1,1.1,79,0.00,,---,0.00,VWS V13.01,2013-03-11 06:09:00,
2013-03-11 02:10:00,35.4,29.6,29.56,South,180,1.1,1.1,79,0.00,,---,0.00,VWS V13.01,2013-03-11 06:10:00,
2013-03-11 02:12:00,35.4,29.6,29.56,South,180,2.0,2.0,79,0.00,,---,0.00,VWS V13.01,2013-03-11 06:12:00,
2013-03-11 02:14:00,35.4,29.6,29.56,South,180,0.0,0.0,79,0.00,,---,0.00,VWS V13.01,2013-03-11 06:14:00,
2013-03-11 02:15:00,35.4,29.6,29.56,South,180,0.0,0.0,79,0.00,,---,0.00,VWS V13.01,2013-03-11 06:15:00,
2013-03-11 02:17:00,35.4,29.6,29.56,SSW,202,1.3,1.3,79,0.00,,---,0.00,VWS V13.01,2013-03-11 06:17:00,
2013-03-11 02:19:00,35.4,29.6,29.56,SSW,202,0.0,1.3,79,0.00,,---,0.00,VWS V13.01,2013-03-11 06:19:00,
2013-03-11 02:20:00,35.4,29.6,29.56,SSW,202,0.0,0.0,79,0.00,,---,0.00,VWS V13.01,2013-03-11 06:20:00,
2013-03-11 02:22:00,35.4,29.6,29.56,ESE,112,1.3,1.3,79,0.00,,---,0.00,VWS V13.01,2013-03-11 06:22:00,
2013-03-11 02:25:00,35.4,29.6,29.56,SSW,202,0.0,0.0,79,0.00,,---,0.00,VWS V13.01,2013-03-11 06:25:00,
2013-03-11 02:27:00,35.1,29.5,29.56,SSE,158,0.0,0.0,80,0.00,,---,0.00,VWS V13.01,2013-03-11 06:27:00,
2013-03-11 02:30:00,35.1,29.5,29.56,SE,135,0.0,0.0,80,0.00,,---,0.00,VWS V13.01,2013-03-11 06:30:00,
2013-03-11 02:33:00,35.1,29.5,29.56,SSE,158,0.0,0.0,80,0.00,,---,0.00,VWS V13.01,2013-03-11 06:33:00,
2013-03-11 02:35:00,35.1,29.5,29.56,South,180,0.0,0.0,80,0.00,,---,0.00,VWS V13.01,2013-03-11 06:35:00,
2013-03-11 02:38:00,35.1,29.5,29.56,SE,135,0.9,0.9,80,0.00,,---,0.00,VWS V13.01,2013-03-11 06:38:00,
2013-03-11 02:40:00,35.1,29.5,29.56,SSW,202,0.0,0.0,80,0.00,,---,0.00,VWS V13.01,2013-03-11 06:40:00,
2013-03-11 02:41:00,35.2,29.7,29.56,SSE,158,0.9,2.7,80,0.00,,---,0.00,VWS V13.01,2013-03-11 06:41:00,
2013-03-11 02:43:00,35.2,29.7,29.56,SSW,202,0.0,0.0,80,0.00,,---,0.00,VWS V13.01,2013-03-11 06:43:00,
2013-03-11 02:45:00,35.2,29.7,29.56,South,180,0.0,0.0,80,0.00,,---,0.00,VWS V13.01,2013-03-11 06:45:00,
2013-03-11 02:46:00,35.2,29.7,29.56,South,180,0.0,0.0,80,0.00,,---,0.00,VWS V13.01,2013-03-11 06:46:00,
2013-03-11 02:48:00,35.2,29.7,29.56,East,90,0.0,0.0,80,0.00,,---,0.00,VWS V13.01,2013-03-11 06:48:00,
2013-03-11 02:50:00,35.2,29.7,29.56,SSW,202,0.0,0.0,80,0.00,,---,0.00,VWS V13.01,2013-03-11 06:50:00,
2013-03-11 02:52:00,35.2,29.7,29.56,SSW,202,0.0,0.0,80,0.00,,---,0.00,VWS V13.01,2013-03-11 06:52:00,
2013-03-11 02:53:00,35.2,29.7,29.56,SSW,202,0.0,0.0,80,0.00,,---,0.00,VWS V13.01,2013-03-11 06:53:00,
2013-03-11 02:56:00,35.4,29.9,29.56,South,180,0.0,0.0,80,0.00,,---,0.00,VWS V13.01,2013-03-11 06:56:00,
2013-03-11 02:57:00,35.4,29.9,29.56,SSW,202,0.0,0.0,80,0.00,,---,0.00,VWS V13.01,2013-03-11 06:57:00,
2013-03-11 02:58:00,35.4,29.9,29.56,SSW,202,0.0,0.0,80,0.00,,---,0.00,VWS V13.01,2013-03-11 06:58:00,
2013-03-11 03:01:00,35.4,29.9,29.56,South,180,0.0,0.0,80,0.00,,---,0.00,VWS V13.01,2013-03-11 07:01:00,
2013-03-11 03:02:00,35.4,29.9,29.56,SSW,202,0.0,0.0,80,0.00,,---,0.00,VWS V13.01,2013-03-11 07:02:00,
2013-03-11 03:03:00,35.4,29.9,29.56,SSW,202,0.0,0.0,80,0.00,,---,0.00,VWS V13.01,2013-03-11 07:03:00,
2013-03-11 03:04:00,35.4,29.9,29.56,SSW,202,0.0,0.0,80,0.00,,---,0.00,VWS V13.01,2013-03-11 07:04:00,
2013-03-11 03:06:00,35.4,29.9,29.56,SE,135,1.1,1.1,80,0.00,,---,0.00,VWS V13.01,2013-03-11 07:06:00,
2013-03-11 03:07:00,35.6,30.0,29.56,SSE,158,2.2,2.2,80,0.00,,---,0.00,VWS V13.01,2013-03-11 07:07:00,
2013-03-11 03:08:00,35.6,30.0,29.56,SSE,158,2.2,2.2,80,0.00,,---,0.00,VWS V13.01,2013-03-11 07:08:00,
2013-03-11 03:09:00,35.6,30.0,29.56,SSE,158,3.4,3.4,80,0.00,,---,0.00,VWS V13.01,2013-03-11 07:09:00,
2013-03-11 03:11:00,35.6,30.0,29.56,SSE,158,1.3,1.3,80,0.00,,---,0.00,VWS V13.01,2013-03-11 07:11:00,
2013-03-11 03:13:00,35.6,30.0,29.56,SE,135,0.9,0.9,80,0.00,,---,0.00,VWS V13.01,2013-03-11 07:13:00,
2013-03-11 03:14:00,35.6,30.0,29.56,SE,135,0.0,0.0,80,0.00,,---,0.00,VWS V13.01,2013-03-11 07:14:00,
2013-03-11 03:16:00,35.6,30.0,29.56,SE,135,1.1,1.1,80,0.00,,---,0.00,VWS V13.01,2013-03-11 07:16:00,
2013-03-11 03:18:00,35.6,30.0,29.56,South,180,0.0,0.0,80,0.00,,---,0.00,VWS V13.01,2013-03-11 07:18:00,
2013-03-11 03:20:00,35.6,30.0,29.56,SE,135,0.0,0.0,80,0.00,,---,0.00,VWS V13.01,2013-03-11 07:20:00,
2013-03-11 03:21:00,35.6,30.0,29.56,SE,135,0.0,0.0,80,0.00,,---,0.00,VWS V13.01,2013-03-11 07:21:00,
2013-03-11 03:23:00,35.6,30.0,29.56,SE,135,1.1,1.1,80,0.00,,---,0.00,VWS V13.01,2013-03-11 07:23:00,
2013-03-11 03:25:00,35.6,30.0,29.56,SSE,158,0.0,0.0,80,0.00,,---,0.00,VWS V13.01,2013-03-11 07:25:00,
2013-03-11 03:26:00,35.6,30.0,29.56,SSE,158,0.0,0.0,80,0.00,,---,0.00,VWS V13.01,2013-03-11 07:26:00,
2013-03-11 03:28:00,35.6,30.4,29.56,SSE,158,0.0,0.0,81,0.00,,---,0.00,VWS V13.01,2013-03-11 07:28:00,
2013-03-11 03:30:00,35.6,30.4,29.56,SSE,158,0.0,0.0,81,0.00,,---,0.00,VWS V13.01,2013-03-11 07:30:00,
2013-03-11 03:32:00,35.6,30.4,29.56,SSE,158,0.0,0.0,81,0.00,,---,0.00,VWS V13.01,2013-03-11 07:32:00,
2013-03-11 03:33:00,35.6,30.4,29.56,SSE,158,0.0,0.0,81,0.00,,---,0.00,VWS V13.01,2013-03-11 07:33:00,
2013-03-11 03:36:00,35.8,30.5,29.56,SSE,158,0.0,0.0,81,0.00,,---,0.00,VWS V13.01,2013-03-11 07:36:00,
2013-03-11 03:37:00,35.8,30.5,29.56,SSE,158,0.0,0.0,81,0.00,,---,0.00,VWS V13.01,2013-03-11 07:37:00,
2013-03-11 03:38:00,35.8,30.5,29.56,SE,135,0.0,0.0,81,0.00,,---,0.00,VWS V13.01,2013-03-11 07:38:00,
2013-03-11 03:39:00,35.8,30.5,29.56,SE,135,0.0,0.0,81,0.00,,---,0.00,VWS V13.01,2013-03-11 07:39:00,
2013-03-11 03:41:00,35.8,30.5,29.56,SSE,158,0.0,0.0,81,0.00,,---,0.00,VWS V13.01,2013-03-11 07:41:00,
2013-03-11 03:42:00,35.8,30.5,29.56,SSE,158,0.0,0.0,81,0.00,,---,0.00,VWS V13.01,2013-03-11 07:42:00,
2013-03-11 03:43:00,35.8,30.5,29.56,SE,135,0.0,0.0,81,0.00,,---,0.00,VWS V13.01,2013-03-11 07:43:00,
2013-03-11 03:44:00,35.8,30.5,29.56,SE,135,0.0,0.0,81,0.00,,---,0.00,VWS V13.01,2013-03-11 07:44:00,
2013-03-11 03:46:00,35.8,30.5,29.56,SE,135,0.0,0.0,81,0.00,,---,0.00,VWS V13.01,2013-03-11 07:46:00,
2013-03-11 03:47:00,35.8,30.5,29.56,SE,135,0.0,0.0,81,0.00,,---,0.00,VWS V13.01,2013-03-11 07:47:00,
2013-03-11 03:49:00,35.8,30.5,29.56,SE,135,0.0,0.0,81,0.00,,---,0.00,VWS V13.01,2013-03-11 07:49:00,
2013-03-11 03:51:00,35.8,30.5,29.56,SSE,158,0.0,0.0,81,0.00,,---,0.00,VWS V13.01,2013-03-11 07:51:00,
2013-03-11 03:52:00,35.8,30.5,29.56,SSE,158,0.0,0.0,81,0.00,,---,0.00,VWS V13.01,2013-03-11 07:52:00,
2013-03-11 03:54:00,35.8,30.5,29.56,SSE,158,0.0,0.0,81,0.00,,---,0.00,VWS V13.01,2013-03-11 07:54:00,
2013-03-11 03:57:00,35.8,30.5,29.56,SSE,158,0.9,0.9,81,0.00,,---,0.00,VWS V13.01,2013-03-11 07:57:00,
2013-03-11 03:59:00,35.8,30.5,29.56,SSE,158,0.0,0.0,81,0.00,,---,0.00,VWS V13.01,2013-03-11 07:59:00,
2013-03-11 04:02:00,35.8,30.5,29.56,SSE,158,0.0,0.0,81,0.00,,---,0.00,VWS V13.01,2013-03-11 08:02:00,
2013-03-11 04:04:00,35.8,30.5,29.56,SSE,158,0.0,0.0,81,0.00,,---,0.00,VWS V13.01,2013-03-11 08:04:00,
2013-03-11 04:07:00,35.8,30.8,29.56,SSE,158,0.0,0.0,82,0.00,,---,0.00,VWS V13.01,2013-03-11 08:07:00,
2013-03-11 04:08:00,35.8,30.8,29.56,SSE,158,0.0,0.0,82,0.00,,---,0.00,VWS V13.01,2013-03-11 08:08:00,
2013-03-11 04:09:00,35.8,30.8,29.56,SSE,158,0.0,0.0,82,0.00,,---,0.00,VWS V13.01,2013-03-11 08:09:00,
2013-03-11 04:13:00,35.8,30.8,29.56,South,180,0.0,1.6,82,0.00,,---,0.00,VWS V13.01,2013-03-11 08:13:00,
2013-03-11 04:14:00,35.8,30.8,29.56,South,180,0.0,0.0,82,0.00,,---,0.00,VWS V13.01,2013-03-11 08:14:00,
2013-03-11 04:19:00,35.8,30.8,29.56,ESE,112,0.0,0.0,82,0.00,,---,0.00,VWS V13.01,2013-03-11 08:19:00,
2013-03-11 04:24:00,35.8,30.8,29.56,SE,135,1.1,1.1,82,0.00,,---,0.00,VWS V13.01,2013-03-11 08:24:00,
2013-03-11 04:29:00,36.0,31.3,29.56,SSE,158,0.0,0.0,83,0.00,,---,0.00,VWS V13.01,2013-03-11 08:29:00,
2013-03-11 04:30:00,36.0,31.3,29.56,SSE,158,0.0,0.0,83,0.00,,---,0.00,VWS V13.01,2013-03-11 08:30:00,
2013-03-11 04:34:00,36.0,31.0,29.56,SE,135,0.0,1.1,82,0.00,,---,0.00,VWS V13.01,2013-03-11 08:34:00,
2013-03-11 04:35:00,36.0,31.0,29.56,SE,135,0.0,0.0,82,0.00,,---,0.00,VWS V13.01,2013-03-11 08:35:00,
2013-03-11 04:39:00,36.0,31.0,29.53,SSE,158,0.0,1.6,82,0.00,,---,0.00,VWS V13.01,2013-03-11 08:39:00,
2013-03-11 04:40:00,36.0,31.0,29.53,SSE,158,0.0,0.0,82,0.00,,---,0.00,VWS V13.01,2013-03-11 08:40:00,
2013-03-11 04:44:00,36.0,31.3,29.53,South,180,0.0,0.0,83,0.00,,---,0.00,VWS V13.01,2013-03-11 08:44:00,
2013-03-11 04:45:00,36.0,31.3,29.53,South,180,0.0,0.0,83,0.00,,---,0.00,VWS V13.01,2013-03-11 08:45:00,
2013-03-11 04:50:00,36.0,31.3,29.53,SSE,158,0.0,0.0,83,0.00,,---,0.00,VWS V13.01,2013-03-11 08:50:00,
2013-03-11 04:55:00,36.0,31.6,29.56,SSE,158,0.0,0.0,84,0.00,,---,0.00,VWS V13.01,2013-03-11 08:55:00,
2013-03-11 04:57:00,36.0,31.6,29.56,SE,135,0.0,2.0,84,0.00,,---,0.00,VWS V13.01,2013-03-11 08:57:00,
2013-03-11 05:00:00,36.0,31.6,29.56,SE,135,2.2,2.2,84,0.00,,---,0.00,VWS V13.01,2013-03-11 09:00:00,
2013-03-11 05:01:00,36.0,31.6,29.56,SE,135,0.0,2.2,84,0.00,,---,0.00,VWS V13.01,2013-03-11 09:01:00,
2013-03-11 05:02:00,36.0,31.6,29.56,SSE,158,2.5,2.5,84,0.00,,---,0.00,VWS V13.01,2013-03-11 09:02:00,
2013-03-11 05:05:00,36.0,31.6,29.56,South,180,0.0,0.0,84,0.00,,---,0.00,VWS V13.01,2013-03-11 09:05:00,
2013-03-11 05:06:00,36.0,31.6,29.56,SSE,158,1.6,1.6,84,0.00,,---,0.00,VWS V13.01,2013-03-11 09:06:00,
2013-03-11 05:08:00,36.0,31.6,29.56,South,180,0.0,0.0,84,0.00,,---,0.00,VWS V13.01,2013-03-11 09:08:00,
2013-03-11 05:10:00,36.0,31.6,29.53,SSE,158,0.0,0.0,84,0.00,,---,0.00,VWS V13.01,2013-03-11 09:10:00,
2013-03-11 05:11:00,36.0,31.6,29.53,SE,135,1.1,1.1,84,0.00,,---,0.00,VWS V13.01,2013-03-11 09:11:00,
2013-03-11 05:13:00,36.1,32.1,29.53,South,180,0.0,0.0,85,0.00,,---,0.00,VWS V13.01,2013-03-11 09:13:00,
2013-03-11 05:15:00,36.1,32.1,29.53,SE,135,1.3,1.3,85,0.00,,---,0.00,VWS V13.01,2013-03-11 09:15:00,
2013-03-11 05:16:00,36.1,32.1,29.53,SE,135,1.3,1.3,85,0.00,,---,0.00,VWS V13.01,2013-03-11 09:16:00,
2013-03-11 05:18:00,36.1,32.1,29.53,South,180,0.0,0.0,85,0.00,,---,0.00,VWS V13.01,2013-03-11 09:18:00,
2013-03-11 05:20:00,36.1,32.1,29.53,South,180,0.0,0.0,85,0.00,,---,0.00,VWS V13.01,2013-03-11 09:20:00,
2013-03-11 05:21:00,36.1,32.1,29.53,South,180,0.0,0.0,85,0.00,,---,0.00,VWS V13.01,2013-03-11 09:21:00,
2013-03-11 05:23:00,36.1,32.1,29.56,South,180,0.0,0.0,85,0.00,,---,0.00,VWS V13.01,2013-03-11 09:23:00,
2013-03-11 05:25:00,36.1,32.1,29.56,South,180,0.0,0.0,85,0.00,,---,0.00,VWS V13.01,2013-03-11 09:25:00,
2013-03-11 05:26:00,36.1,32.1,29.56,South,180,0.0,0.0,85,0.00,,---,0.00,VWS V13.01,2013-03-11 09:26:00,
2013-03-11 05:27:00,36.1,32.1,29.56,South,180,0.0,0.0,85,0.00,,---,0.00,VWS V13.01,2013-03-11 09:27:00,
2013-03-11 05:28:00,36.1,32.1,29.56,South,180,0.0,0.0,85,0.00,,---,0.00,VWS V13.01,2013-03-11 09:28:00,
2013-03-11 05:30:00,36.1,32.1,29.56,South,180,0.0,0.0,85,0.00,,---,0.00,VWS V13.01,2013-03-11 09:30:00,
2013-03-11 05:32:00,36.1,32.1,29.56,South,180,0.0,0.0,85,0.00,,---,0.00,VWS V13.01,2013-03-11 09:32:00,
2013-03-11 05:34:00,36.1,32.1,29.56,South,180,0.0,0.0,85,0.00,,---,0.00,VWS V13.01,2013-03-11 09:34:00,
2013-03-11 05:35:00,36.1,32.1,29.56,South,180,0.0,0.0,85,0.00,,---,0.00,VWS V13.01,2013-03-11 09:35:00,
2013-03-11 05:37:00,36.1,32.1,29.56,South,180,0.0,0.0,85,0.00,,---,0.00,VWS V13.01,2013-03-11 09:37:00,
2013-03-11 05:38:00,36.1,32.1,29.56,SSE,158,0.0,0.0,85,0.00,,---,0.00,VWS V13.01,2013-03-11 09:38:00,
2013-03-11 05:39:00,36.1,32.1,29.53,SSE,158,0.0,0.0,85,0.00,,---,0.00,VWS V13.01,2013-03-11 09:39:00,
2013-03-11 05:40:00,36.1,32.1,29.53,SE,135,0.0,0.0,85,0.00,,---,0.00,VWS V13.01,2013-03-11 09:40:00,
2013-03-11 05:43:00,36.1,32.1,29.53,SE,135,0.0,0.0,85,0.00,,---,0.00,VWS V13.01,2013-03-11 09:43:00,
2013-03-11 05:45:00,36.1,32.1,29.53,SE,135,0.0,0.0,85,0.00,,---,0.00,VWS V13.01,2013-03-11 09:45:00,
2013-03-11 05:46:00,36.1,32.1,29.53,SE,135,0.0,0.0,85,0.00,,---,0.00,VWS V13.01,2013-03-11 09:46:00,
2013-03-11 05:48:00,36.1,32.1,29.53,SE,135,0.0,0.0,85,0.00,,---,0.00,VWS V13.01,2013-03-11 09:48:00,
2013-03-11 05:50:00,36.1,32.1,29.53,SSE,158,0.0,0.0,85,0.00,,---,0.00,VWS V13.01,2013-03-11 09:50:00,
2013-03-11 05:52:00,36.1,32.1,29.56,SSW,202,0.0,0.0,85,0.00,,---,0.00,VWS V13.01,2013-03-11 09:52:00,
2013-03-11 05:53:00,36.1,32.1,29.56,SSW,202,0.0,0.0,85,0.00,,---,0.00,VWS V13.01,2013-03-11 09:53:00,
2013-03-11 05:55:00,36.1,32.1,29.56,SE,135,0.0,0.0,85,0.00,,---,0.00,VWS V13.01,2013-03-11 09:55:00,
2013-03-11 05:57:00,36.1,32.1,29.56,SE,135,0.0,0.0,85,0.00,,---,0.00,VWS V13.01,2013-03-11 09:57:00,
2013-03-11 05:58:00,36.1,32.1,29.56,SE,135,0.0,0.0,85,0.00,,---,0.00,VWS V13.01,2013-03-11 09:58:00,
2013-03-11 06:00:00,36.1,32.1,29.56,SE,135,0.0,0.0,85,0.00,,---,0.00,VWS V13.01,2013-03-11 10:00:00,
2013-03-11 06:02:00,36.1,32.1,29.56,SE,135,0.0,0.0,85,0.00,,---,0.00,VWS V13.01,2013-03-11 10:02:00,
2013-03-11 06:03:00,36.1,32.1,29.56,SE,135,0.0,0.0,85,0.00,,---,0.00,VWS V13.01,2013-03-11 10:03:00,
2013-03-11 06:04:00,36.1,32.1,29.56,SE,135,0.0,0.0,85,0.00,,---,0.00,VWS V13.01,2013-03-11 10:04:00,
2013-03-11 06:05:00,36.1,32.1,29.56,SE,135,0.0,2.0,85,0.00,,---,0.00,VWS V13.01,2013-03-11 10:05:00,
2013-03-11 06:07:00,36.1,32.1,29.56,SE,135,0.0,0.0,85,0.00,,---,0.00,VWS V13.01,2013-03-11 10:07:00,
2013-03-11 06:08:00,36.1,32.1,29.56,SE,135,0.0,0.0,85,0.00,,---,0.00,VWS V13.01,2013-03-11 10:08:00,
2013-03-11 06:09:00,36.1,32.1,29.56,SSE,158,0.0,0.0,85,0.00,,---,0.00,VWS V13.01,2013-03-11 10:09:00,
2013-03-11 06:10:00,36.1,32.1,29.53,SE,135,0.0,0.0,85,0.00,,---,0.00,VWS V13.01,2013-03-11 10:10:00,
2013-03-11 06:12:00,36.1,32.1,29.53,SE,135,0.0,0.0,85,0.00,,---,0.00,VWS V13.01,2013-03-11 10:12:00,
2013-03-11 06:14:00,36.1,32.1,29.53,SE,135,0.0,0.0,85,0.00,,---,0.00,VWS V13.01,2013-03-11 10:14:00,
2013-03-11 06:16:00,36.1,32.1,29.53,SE,135,0.0,0.0,85,0.00,,---,0.00,VWS V13.01,2013-03-11 10:16:00,
2013-03-11 06:17:00,36.1,32.1,29.53,SE,135,0.0,0.0,85,0.00,,---,0.00,VWS V13.01,2013-03-11 10:17:00,
2013-03-11 06:19:00,36.1,32.1,29.53,SSE,158,0.0,0.0,85,0.00,,---,0.00,VWS V13.01,2013-03-11 10:19:00,
2013-03-11 06:21:00,36.1,32.1,29.53,SSE,158,0.0,0.0,85,0.00,,---,0.00,VWS V13.01,2013-03-11 10:21:00,
2013-03-11 06:23:00,36.1,32.1,29.53,SSE,158,0.0,0.0,85,0.00,,---,0.00,VWS V13.01,2013-03-11 10:23:00,
2013-03-11 06:24:00,36.1,32.1,29.53,SSE,158,0.0,0.0,85,0.00,,---,0.00,VWS V13.01,2013-03-11 10:24:00,
2013-03-11 06:27:00,36.1,32.1,29.53,SSE,158,0.0,0.0,85,0.00,,---,0.00,VWS V13.01,2013-03-11 10:27:00,
2013-03-11 06:28:00,36.1,32.1,29.53,SSE,158,0.0,0.0,85,0.00,,---,0.00,VWS V13.01,2013-03-11 10:28:00,
2013-03-11 06:29:00,36.1,32.4,29.53,SSE,158,0.0,0.0,86,0.00,,---,0.00,VWS V13.01,2013-03-11 10:29:00,
2013-03-11 06:32:00,36.1,32.4,29.53,SSE,158,0.0,0.0,86,0.00,,---,0.00,VWS V13.01,2013-03-11 10:32:00,
2013-03-11 06:33:00,36.1,32.4,29.53,SSE,158,0.0,0.0,86,0.00,,---,0.00,VWS V13.01,2013-03-11 10:33:00,
2013-03-11 06:34:00,36.1,32.4,29.53,SSE,158,0.0,0.0,86,0.00,,---,0.00,VWS V13.01,2013-03-11 10:34:00,
2013-03-11 06:37:00,36.1,32.4,29.53,SSE,158,0.0,0.0,86,0.00,,---,0.00,VWS V13.01,2013-03-11 10:37:00,
2013-03-11 06:38:00,36.1,32.4,29.53,SSE,158,0.0,0.0,86,0.00,,---,0.00,VWS V13.01,2013-03-11 10:38:00,
2013-03-11 06:39:00,36.1,32.4,29.53,SSE,158,0.0,0.0,86,0.00,,---,0.00,VWS V13.01,2013-03-11 10:39:00,
2013-03-11 06:40:00,36.1,32.4,29.53,SSE,158,0.0,0.0,86,0.00,,---,0.00,VWS V13.01,2013-03-11 10:40:00,
2013-03-11 06:42:00,36.1,32.4,29.53,SSE,158,0.0,0.0,86,0.00,,---,0.00,VWS V13.01,2013-03-11 10:42:00,
2013-03-11 06:43:00,36.1,32.4,29.53,SSE,158,0.0,0.0,86,0.00,,---,0.00,VWS V13.01,2013-03-11 10:43:00,
2013-03-11 06:44:00,36.1,32.4,29.53,SSE,158,0.0,0.0,86,0.00,,---,0.00,VWS V13.01,2013-03-11 10:44:00,
2013-03-11 06:45:00,36.1,32.4,29.53,SSE,158,0.0,0.0,86,0.00,,---,0.00,VWS V13.01,2013-03-11 10:45:00,
2013-03-11 06:48:00,36.1,32.4,29.53,SSE,158,0.0,0.0,86,0.00,,---,0.00,VWS V13.01,2013-03-11 10:48:00,
2013-03-11 06:49:00,36.1,32.4,29.53,SSE,158,0.0,0.0,86,0.00,,---,0.00,VWS V13.01,2013-03-11 10:49:00,
2013-03-11 06:50:00,36.1,32.4,29.53,SSE,158,0.0,0.0,86,0.00,,---,0.00,VWS V13.01,2013-03-11 10:50:00,
2013-03-11 06:53:00,36.1,32.4,29.53,SSE,158,0.0,0.0,86,0.00,,---,0.00,VWS V13.01,2013-03-11 10:53:00,
2013-03-11 06:54:00,36.1,32.4,29.53,SSE,158,0.0,0.0,86,0.00,,---,0.00,VWS V13.01,2013-03-11 10:54:00,
2013-03-11 06:55:00,36.1,32.4,29.53,SSE,158,0.0,0.0,86,0.00,,---,0.00,VWS V13.01,2013-03-11 10:55:00,
2013-03-11 06:58:00,36.1,32.4,29.53,SSE,158,0.0,0.0,86,0.00,,---,0.00,VWS V13.01,2013-03-11 10:58:00,
2013-03-11 06:59:00,36.1,32.4,29.53,ESE,112,0.0,0.0,86,0.00,,---,0.00,VWS V13.01,2013-03-11 10:59:00,
2013-03-11 07:01:00,36.1,32.4,29.53,SE,135,0.0,0.0,86,0.00,,---,0.00,VWS V13.01,2013-03-11 11:01:00,
2013-03-11 07:03:00,36.1,32.4,29.53,SE,135,0.9,0.9,86,0.00,,---,0.00,VWS V13.01,2013-03-11 11:03:00,
2013-03-11 07:04:00,36.1,32.4,29.53,SE,135,0.0,0.0,86,0.00,,---,0.00,VWS V13.01,2013-03-11 11:04:00,
2013-03-11 07:05:00,36.1,32.4,29.53,SE,135,0.0,0.0,86,0.00,,---,0.00,VWS V13.01,2013-03-11 11:05:00,
2013-03-11 07:06:00,36.1,32.4,29.53,SE,135,0.0,0.0,86,0.00,,---,0.00,VWS V13.01,2013-03-11 11:06:00,
2013-03-11 07:08:00,36.1,32.4,29.53,SE,135,0.0,0.0,86,0.00,,---,0.00,VWS V13.01,2013-03-11 11:08:00,
2013-03-11 07:09:00,36.1,32.4,29.53,SE,135,0.0,0.0,86,0.00,,---,0.00,VWS V13.01,2013-03-11 11:09:00,
2013-03-11 07:10:00,36.1,32.4,29.53,SE,135,0.0,0.0,86,0.00,,---,0.00,VWS V13.01,2013-03-11 11:10:00,
2013-03-11 07:12:00,36.1,32.4,29.53,SE,135,0.0,0.0,86,0.00,,---,0.00,VWS V13.01,2013-03-11 11:12:00,
2013-03-11 07:13:00,36.1,32.4,29.53,SE,135,0.0,0.0,86,0.00,,---,0.00,VWS V13.01,2013-03-11 11:13:00,
2013-03-11 07:14:00,36.1,32.4,29.53,SE,135,0.9,0.9,86,0.00,,---,0.00,VWS V13.01,2013-03-11 11:14:00,
2013-03-11 07:15:00,36.1,32.4,29.53,SSE,158,0.0,0.9,86,0.00,,---,0.00,VWS V13.01,2013-03-11 11:15:00,
2013-03-11 07:17:00,36.1,32.4,29.53,SSE,158,0.9,0.9,86,0.00,,---,0.00,VWS V13.01,2013-03-11 11:17:00,
2013-03-11 07:18:00,36.1,32.4,29.53,SSE,158,0.9,0.9,86,0.00,,---,0.00,VWS V13.01,2013-03-11 11:18:00,
2013-03-11 07:19:00,36.1,32.4,29.53,SSE,158,0.9,0.9,86,0.00,,---,0.00,VWS V13.01,2013-03-11 11:19:00,
2013-03-11 07:20:00,36.1,32.4,29.53,SE,135,0.0,0.0,86,0.00,,---,0.00,VWS V13.01,2013-03-11 11:20:00,
2013-03-11 07:22:00,36.1,32.4,29.53,SSE,158,0.0,0.9,86,0.00,,---,0.00,VWS V13.01,2013-03-11 11:22:00,
2013-03-11 07:24:00,36.1,32.4,29.53,SSE,158,0.0,0.0,86,0.00,,---,0.00,VWS V13.01,2013-03-11 11:24:00,
2013-03-11 07:25:00,36.1,32.4,29.53,SSE,158,0.0,0.0,86,0.00,,---,0.00,VWS V13.01,2013-03-11 11:25:00,
2013-03-11 07:27:00,36.1,32.4,29.53,SSE,158,0.0,2.2,86,0.00,,---,0.00,VWS V13.01,2013-03-11 11:27:00,
2013-03-11 07:29:00,36.1,32.4,29.53,SSE,158,0.0,0.0,86,0.00,,---,0.00,VWS V13.01,2013-03-11 11:29:00,
2013-03-11 07:30:00,36.1,32.4,29.53,SSE,158,0.0,2.0,86,0.00,,---,0.00,VWS V13.01,2013-03-11 11:30:00,
2013-03-11 07:33:00,36.1,32.4,29.53,SE,135,1.1,1.1,86,0.00,,---,0.00,VWS V13.01,2013-03-11 11:33:00,
2013-03-11 07:34:00,36.1,32.4,29.53,SSE,158,0.0,1.3,86,0.00,,---,0.00,VWS V13.01,2013-03-11 11:34:00,
2013-03-11 07:35:00,36.1,32.4,29.53,SSE,158,0.0,0.0,86,0.00,,---,0.00,VWS V13.01,2013-03-11 11:35:00,
2013-03-11 07:38:00,36.1,32.4,29.53,SSE,158,2.7,2.7,86,0.00,,---,0.00,VWS V13.01,2013-03-11 11:38:00,
2013-03-11 07:39:00,36.1,32.4,29.53,SSE,158,0.0,0.0,86,0.00,,---,0.00,VWS V13.01,2013-03-11 11:39:00,
2013-03-11 07:40:00,36.1,32.4,29.53,South,180,1.1,1.1,86,0.00,,---,0.00,VWS V13.01,2013-03-11 11:40:00,
2013-03-11 07:43:00,36.1,32.4,29.53,SSE,158,1.6,1.6,86,0.00,,---,0.00,VWS V13.01,2013-03-11 11:43:00,
2013-03-11 07:44:00,36.1,32.4,29.53,SSE,158,0.0,0.0,86,0.00,,---,0.00,VWS V13.01,2013-03-11 11:44:00,
2013-03-11 07:46:00,36.5,32.7,29.53,SSE,158,2.0,2.0,86,0.00,,---,0.00,VWS V13.01,2013-03-11 11:46:00,
2013-03-11 07:48:00,36.5,32.7,29.53,SSE,158,0.0,0.0,86,0.00,,---,0.00,VWS V13.01,2013-03-11 11:48:00,
2013-03-11 07:49:00,36.5,32.7,29.53,SSE,158,1.1,1.1,86,0.00,,---,0.00,VWS V13.01,2013-03-11 11:49:00,
2013-03-11 07:51:00,36.5,32.7,29.53,SSE,158,0.0,1.3,86,0.00,,---,0.00,VWS V13.01,2013-03-11 11:51:00,
2013-03-11 07:54:00,36.7,32.9,29.53,SSE,158,1.1,1.1,86,0.00,,---,0.00,VWS V13.01,2013-03-11 11:54:00,
2013-03-11 07:56:00,36.7,32.9,29.53,SSE,158,0.0,0.9,86,0.00,,---,0.00,VWS V13.01,2013-03-11 11:56:00,
2013-03-11 07:59:00,36.7,32.9,29.53,SSE,158,1.1,1.1,86,0.00,,---,0.00,VWS V13.01,2013-03-11 11:59:00,
2013-03-11 08:00:00,36.7,32.9,29.53,SSE,158,2.5,2.5,86,0.00,,---,0.00,VWS V13.01,2013-03-11 12:00:00,
2013-03-11 08:01:00,36.7,32.9,29.53,SSE,158,2.5,2.5,86,0.00,,---,0.00,VWS V13.01,2013-03-11 12:01:00,
2013-03-11 08:04:00,36.7,32.9,29.53,SE,135,1.3,1.3,86,0.00,,---,0.00,VWS V13.01,2013-03-11 12:04:00,
2013-03-11 08:05:00,36.7,32.9,29.53,SSE,158,1.3,1.3,86,0.00,,---,0.00,VWS V13.01,2013-03-11 12:05:00,
2013-03-11 08:07:00,36.7,32.9,29.53,SSE,158,2.0,2.0,86,0.00,,---,0.00,VWS V13.01,2013-03-11 12:07:00,
2013-03-11 08:09:00,36.7,32.9,29.53,SE,135,0.0,0.0,86,0.00,,---,0.00,VWS V13.01,2013-03-11 12:09:00,
2013-03-11 08:10:00,36.7,32.9,29.53,SSE,158,1.1,1.1,86,0.00,,---,0.00,VWS V13.01,2013-03-11 12:10:00,
2013-03-11 08:12:00,36.7,32.9,29.53,SSE,158,0.0,0.0,86,0.00,,---,0.00,VWS V13.01,2013-03-11 12:12:00,
2013-03-11 08:14:00,36.7,32.9,29.53,SSE,158,0.9,0.9,86,0.00,,---,0.00,VWS V13.01,2013-03-11 12:14:00,
2013-03-11 08:15:00,37.6,33.5,29.53,SSE,158,0.0,0.9,85,0.00,,---,0.00,VWS V13.01,2013-03-11 12:15:00,
2013-03-11 08:17:00,37.6,33.5,29.53,SSE,158,0.0,0.0,85,0.00,,---,0.00,VWS V13.01,2013-03-11 12:17:00,
2013-03-11 08:20:00,37.6,33.5,29.53,SE,135,0.0,0.0,85,0.00,,---,0.00,VWS V13.01,2013-03-11 12:20:00,
2013-03-11 08:22:00,37.8,33.7,29.53,SSE,158,0.0,0.0,85,0.00,,---,0.00,VWS V13.01,2013-03-11 12:22:00,
2013-03-11 08:25:00,37.8,33.7,29.53,SSE,158,0.0,0.0,85,0.00,,---,0.00,VWS V13.01,2013-03-11 12:25:00,
2013-03-11 08:27:00,37.8,33.7,29.53,SSE,158,0.0,0.0,85,0.00,,---,0.00,VWS V13.01,2013-03-11 12:27:00,
2013-03-11 08:30:00,37.8,33.7,29.53,SSE,158,0.0,0.0,85,0.00,,---,0.00,VWS V13.01,2013-03-11 12:30:00,
2013-03-11 08:32:00,37.8,33.7,29.53,SSE,158,0.0,0.0,85,0.00,,---,0.00,VWS V13.01,2013-03-11 12:32:00,
2013-03-11 08:35:00,37.8,33.7,29.53,SSE,158,0.0,0.0,85,0.00,,---,0.00,VWS V13.01,2013-03-11 12:35:00,
2013-03-11 08:37:00,37.8,33.7,29.53,SSE,158,0.0,0.0,85,0.00,,---,0.00,VWS V13.01,2013-03-11 12:37:00,
2013-03-11 08:40:00,38.3,34.2,29.53,SSE,158,0.0,0.0,85,0.00,,---,0.00,VWS V13.01,2013-03-11 12:40:00,
2013-03-11 08:41:00,38.3,34.2,29.53,SSE,158,0.0,0.0,85,0.00,,---,0.00,VWS V13.01,2013-03-11 12:41:00,
2013-03-11 08:43:00,38.3,34.2,29.53,SSE,158,0.0,0.0,85,0.00,,---,0.00,VWS V13.01,2013-03-11 12:43:00,
2013-03-11 08:45:00,38.7,34.2,29.53,SSE,158,0.0,0.0,84,0.00,,---,0.00,VWS V13.01,2013-03-11 12:45:00,
2013-03-11 08:46:00,38.7,34.2,29.53,SSE,158,0.0,0.0,84,0.00,,---,0.00,VWS V13.01,2013-03-11 12:46:00,
2013-03-11 08:48:00,38.7,34.2,29.53,SSE,158,0.0,0.0,84,0.00,,---,0.00,VWS V13.01,2013-03-11 12:48:00,
2013-03-11 08:50:00,38.7,34.2,29.53,SSE,158,0.0,0.0,84,0.00,,---,0.00,VWS V13.01,2013-03-11 12:50:00,
2013-03-11 08:51:00,38.7,34.2,29.53,SSE,158,0.0,0.0,84,0.00,,---,0.00,VWS V13.01,2013-03-11 12:51:00,
2013-03-11 08:53:00,38.7,34.2,29.53,SSE,158,0.0,0.0,84,0.00,,---,0.00,VWS V13.01,2013-03-11 12:53:00,
2013-03-11 08:56:00,38.7,34.2,29.53,SSE,158,0.0,0.0,84,0.00,,---,0.00,VWS V13.01,2013-03-11 12:56:00,
2013-03-11 08:58:00,38.7,34.2,29.53,SSE,158,0.0,0.0,84,0.00,,---,0.00,VWS V13.01,2013-03-11 12:58:00,
2013-03-11 09:01:00,38.7,34.2,29.53,SSE,158,0.0,0.0,84,0.00,,---,0.00,VWS V13.01,2013-03-11 13:01:00,
2013-03-11 09:03:00,38.7,34.2,29.53,SE,135,0.0,0.0,84,0.00,,---,0.00,VWS V13.01,2013-03-11 13:03:00,
2013-03-11 09:06:00,38.7,34.2,29.53,South,180,0.0,0.0,84,0.00,,---,0.00,VWS V13.01,2013-03-11 13:06:00,
2013-03-11 09:07:00,38.7,34.2,29.53,South,180,0.0,0.0,84,0.00,,---,0.00,VWS V13.01,2013-03-11 13:07:00,
2013-03-11 09:08:00,38.7,34.2,29.53,SSE,158,0.0,2.0,84,0.00,,---,0.00,VWS V13.01,2013-03-11 13:08:00,
2013-03-11 09:12:00,38.7,34.2,29.53,SE,135,0.9,0.9,84,0.00,,---,0.00,VWS V13.01,2013-03-11 13:12:00,
2013-03-11 09:13:00,38.7,34.2,29.53,SSE,158,0.0,0.9,84,0.00,,---,0.00,VWS V13.01,2013-03-11 13:13:00,
2013-03-11 09:17:00,39.9,34.9,29.53,SE,135,0.0,1.1,82,0.00,,---,0.00,VWS V13.01,2013-03-11 13:17:00,
2013-03-11 09:18:00,39.9,34.9,29.53,SSE,158,1.6,1.6,82,0.00,,---,0.00,VWS V13.01,2013-03-11 13:18:00,
2013-03-11 09:22:00,39.9,34.9,29.53,South,180,1.6,2.9,82,0.00,,---,0.00,VWS V13.01,2013-03-11 13:22:00,
2013-03-11 09:23:00,39.9,34.9,29.53,South,180,1.6,1.6,82,0.00,,---,0.00,VWS V13.01,2013-03-11 13:23:00,
2013-03-11 09:24:00,39.9,34.9,29.53,South,180,0.0,0.0,82,0.00,,---,0.00,VWS V13.01,2013-03-11 13:24:00,
2013-03-11 09:28:00,39.9,34.9,29.53,SE,135,1.1,1.1,82,0.00,,---,0.00,VWS V13.01,2013-03-11 13:28:00,
2013-03-11 09:29:00,39.9,34.9,29.53,SSE,158,0.0,0.0,82,0.00,,---,0.00,VWS V13.01,2013-03-11 13:29:00,
2013-03-11 09:33:00,41.0,35.6,29.53,ESE,112,1.6,1.6,81,0.00,,---,0.00,VWS V13.01,2013-03-11 13:33:00,
2013-03-11 09:34:00,41.0,35.6,29.53,SSE,158,0.0,0.0,81,0.00,,---,0.00,VWS V13.01,2013-03-11 13:34:00,
2013-03-11 09:38:00,41.4,35.7,29.53,SSE,158,0.0,0.0,80,0.00,,---,0.00,VWS V13.01,2013-03-11 13:38:00,
2013-03-11 09:40:00,41.4,35.7,29.53,SSE,158,0.0,0.0,80,0.00,,---,0.00,VWS V13.01,2013-03-11 13:40:00,
2013-03-11 09:43:00,41.4,35.7,29.53,SSE,158,2.7,2.7,80,0.00,,---,0.00,VWS V13.01,2013-03-11 13:43:00,
2013-03-11 09:44:00,41.4,35.7,29.53,SSE,158,1.6,1.6,80,0.00,,---,0.00,VWS V13.01,2013-03-11 13:44:00,
2013-03-11 09:45:00,41.4,35.7,29.53,South,180,2.7,2.7,80,0.00,,---,0.00,VWS V13.01,2013-03-11 13:45:00,
2013-03-11 09:48:00,41.4,35.7,29.53,South,180,0.0,0.0,80,0.00,,---,0.00,VWS V13.01,2013-03-11 13:48:00,
2013-03-11 09:49:00,41.4,35.7,29.53,South,180,0.0,0.0,80,0.00,,---,0.00,VWS V13.01,2013-03-11 13:49:00,
2013-03-11 09:50:00,41.4,35.7,29.53,SSE,158,2.0,2.0,80,0.00,,---,0.00,VWS V13.01,2013-03-11 13:50:00,
2013-03-11 09:53:00,41.4,35.7,29.53,SW,225,0.0,0.0,80,0.00,,---,0.00,VWS V13.01,2013-03-11 13:53:00,
2013-03-11 09:54:00,41.4,35.7,29.53,SSE,158,0.0,0.0,80,0.00,,---,0.00,VWS V13.01,2013-03-11 13:54:00,
2013-03-11 09:55:00,41.4,35.7,29.53,SSE,158,1.6,1.6,80,0.00,,---,0.00,VWS V13.01,2013-03-11 13:55:00,
2013-03-11 09:58:00,41.4,35.7,29.53,SE,135,0.0,2.0,80,0.00,,---,0.00,VWS V13.01,2013-03-11 13:58:00,
2013-03-11 09:59:00,41.4,35.7,29.53,SE,135,0.0,0.0,80,0.00,,---,0.00,VWS V13.01,2013-03-11 13:59:00,
2013-03-11 10:01:00,41.4,35.7,29.53,ESE,112,0.0,0.0,80,0.00,,---,0.00,VWS V13.01,2013-03-11 14:01:00,
2013-03-11 10:03:00,41.4,35.7,29.53,SE,135,0.0,0.0,80,0.00,,---,0.00,VWS V13.01,2013-03-11 14:03:00,
2013-03-11 10:04:00,41.4,35.7,29.53,SE,135,0.0,0.0,80,0.00,,---,0.00,VWS V13.01,2013-03-11 14:04:00,
2013-03-11 10:06:00,41.4,35.7,29.53,South,180,0.0,0.9,80,0.00,,---,0.00,VWS V13.01,2013-03-11 14:06:00,
2013-03-11 10:09:00,43.3,37.0,29.53,South,180,0.0,0.0,78,0.00,,---,0.00,VWS V13.01,2013-03-11 14:09:00,
2013-03-11 10:12:00,43.3,37.0,29.53,SSW,202,0.0,0.9,78,0.00,,---,0.00,VWS V13.01,2013-03-11 14:12:00,
2013-03-11 10:14:00,43.3,37.0,29.53,SE,135,0.9,0.9,78,0.00,,---,0.00,VWS V13.01,2013-03-11 14:14:00,
2013-03-11 10:17:00,44.1,37.7,29.53,SSW,202,1.1,1.1,78,0.00,,---,0.00,VWS V13.01,2013-03-11 14:17:00,
2013-03-11 10:19:00,44.1,37.7,29.53,South,180,0.0,0.0,78,0.00,,---,0.00,VWS V13.01,2013-03-11 14:19:00,
2013-03-11 10:20:00,44.1,37.7,29.53,SSE,158,1.3,2.5,78,0.00,,---,0.00,VWS V13.01,2013-03-11 14:20:00,
2013-03-11 10:22:00,44.2,37.5,29.53,ESE,112,1.6,1.6,77,0.00,,---,0.00,VWS V13.01,2013-03-11 14:22:00,
2013-03-11 10:24:00,44.8,37.7,29.53,SE,135,0.0,1.6,76,0.00,,---,0.00,VWS V13.01,2013-03-11 14:24:00,
2013-03-11 10:25:00,44.8,37.7,29.53,SE,135,0.0,0.0,76,0.00,,---,0.00,VWS V13.01,2013-03-11 14:25:00,
2013-03-11 10:27:00,44.8,37.7,29.56,SSE,158,2.5,2.5,76,0.00,,---,0.00,VWS V13.01,2013-03-11 14:27:00,
2013-03-11 10:29:00,44.8,37.7,29.56,SSW,202,0.0,0.0,76,0.00,,---,0.00,VWS V13.01,2013-03-11 14:29:00,
2013-03-11 10:30:00,44.8,37.7,29.56,South,180,1.1,1.1,76,0.00,,---,0.00,VWS V13.01,2013-03-11 14:30:00,
2013-03-11 10:32:00,45.5,38.4,29.56,WSW,248,1.3,1.3,76,0.00,,---,0.00,VWS V13.01,2013-03-11 14:32:00,
2013-03-11 10:34:00,45.5,38.4,29.56,SSW,202,0.9,2.2,76,0.00,,---,0.00,VWS V13.01,2013-03-11 14:34:00,
2013-03-11 10:35:00,45.5,38.4,29.56,South,180,0.0,0.0,76,0.00,,---,0.00,VWS V13.01,2013-03-11 14:35:00,
2013-03-11 10:38:00,45.5,38.4,29.53,SSE,158,0.0,0.9,76,0.00,,---,0.00,VWS V13.01,2013-03-11 14:38:00,
2013-03-11 10:39:00,45.5,38.4,29.53,South,180,1.1,1.6,76,0.00,,---,0.00,VWS V13.01,2013-03-11 14:39:00,
2013-03-11 10:40:00,45.5,38.4,29.53,South,180,0.0,1.1,76,0.00,,---,0.00,VWS V13.01,2013-03-11 14:40:00,
2013-03-11 10:43:00,45.5,38.4,29.53,SSE,158,1.1,1.1,76,0.00,,---,0.00,VWS V13.01,2013-03-11 14:43:00,
2013-03-11 10:45:00,45.5,38.4,29.53,South,180,0.0,0.0,76,0.00,,---,0.00,VWS V13.01,2013-03-11 14:45:00,
2013-03-11 10:48:00,45.5,38.4,29.53,SSW,202,1.1,1.1,76,0.00,,---,0.00,VWS V13.01,2013-03-11 14:48:00,
2013-03-11 10:49:00,45.5,38.4,29.53,SSW,202,0.0,1.1,76,0.00,,---,0.00,VWS V13.01,2013-03-11 14:49:00,
2013-03-11 10:50:00,45.5,38.4,29.53,South,180,0.9,0.9,76,0.00,,---,0.00,VWS V13.01,2013-03-11 14:50:00,
2013-03-11 10:51:00,45.5,38.4,29.53,South,180,0.0,0.0,76,0.00,,---,0.00,VWS V13.01,2013-03-11 14:51:00,
2013-03-11 10:53:00,45.5,38.4,29.53,SSW,202,0.9,0.9,76,0.00,,---,0.00,VWS V13.01,2013-03-11 14:53:00,
2013-03-11 10:55:00,46.9,39.1,29.56,SSW,202,1.1,1.1,74,0.00,,---,0.00,VWS V13.01,2013-03-11 14:55:00,
2013-03-11 10:56:00,46.9,39.1,29.56,SW,225,0.0,1.1,74,0.00,,---,0.00,VWS V13.01,2013-03-11 14:56:00,
2013-03-11 10:58:00,46.9,39.1,29.56,ESE,112,0.0,0.0,74,0.00,,---,0.00,VWS V13.01,2013-03-11 14:58:00,
2013-03-11 11:00:00,46.9,39.1,29.56,SSE,158,3.1,3.1,74,0.00,,---,0.00,VWS V13.01,2013-03-11 15:00:00,
2013-03-11 11:01:00,47.3,39.5,29.56,SW,225,2.5,3.1,74,0.00,,---,0.00,VWS V13.01,2013-03-11 15:01:00,
2013-03-11 11:02:00,47.3,39.5,29.56,SW,225,2.5,2.5,74,0.00,,---,0.00,VWS V13.01,2013-03-11 15:02:00,
2013-03-11 11:03:00,47.3,39.5,29.56,SSW,202,3.8,3.8,74,0.00,,---,0.00,VWS V13.01,2013-03-11 15:03:00,
2013-03-11 11:05:00,47.3,39.5,29.56,West,270,0.0,2.0,74,0.00,,---,0.00,VWS V13.01,2013-03-11 15:05:00,
2013-03-11 11:07:00,47.3,39.5,29.56,SE,135,1.3,1.3,74,0.00,,---,0.00,VWS V13.01,2013-03-11 15:07:00,
2013-03-11 11:08:00,47.3,39.5,29.56,South,180,1.3,2.9,74,0.00,,---,0.00,VWS V13.01,2013-03-11 15:08:00,
2013-03-11 11:11:00,47.3,39.5,29.53,WSW,248,1.3,1.3,74,0.00,,---,0.00,VWS V13.01,2013-03-11 15:11:00,
2013-03-11 11:12:00,47.3,39.5,29.53,SW,225,3.1,3.1,74,0.00,,---,0.00,VWS V13.01,2013-03-11 15:12:00,
2013-03-11 11:14:00,47.3,39.5,29.53,South,180,1.1,1.1,74,0.00,,---,0.00,VWS V13.01,2013-03-11 15:14:00,
2013-03-11 11:17:00,47.8,39.3,29.53,SSW,202,2.2,2.2,72,0.00,,---,0.00,VWS V13.01,2013-03-11 15:17:00,
2013-03-11 11:18:00,47.8,39.3,29.53,East,90,2.9,2.9,72,0.00,,---,0.00,VWS V13.01,2013-03-11 15:18:00,
2013-03-11 11:19:00,47.8,39.3,29.53,SSW,202,1.6,1.6,72,0.00,,---,0.00,VWS V13.01,2013-03-11 15:19:00,
2013-03-11 11:22:00,47.8,39.3,29.53,SSE,158,0.0,0.9,72,0.00,,---,0.00,VWS V13.01,2013-03-11 15:22:00,
2013-03-11 11:23:00,47.8,39.3,29.53,SSE,158,0.0,0.0,72,0.00,,---,0.00,VWS V13.01,2013-03-11 15:23:00,
2013-03-11 11:24:00,48.0,39.4,29.53,SSE,158,0.0,0.9,72,0.00,,---,0.00,VWS V13.01,2013-03-11 15:24:00,
2013-03-11 11:27:00,48.0,39.4,29.53,WSW,248,2.7,2.7,72,0.00,,---,0.00,VWS V13.01,2013-03-11 15:27:00,
2013-03-11 11:28:00,48.0,39.4,29.53,SSW,202,0.0,2.7,72,0.00,,---,0.00,VWS V13.01,2013-03-11 15:28:00,
2013-03-11 11:29:00,48.0,39.4,29.53,SW,225,0.0,0.0,72,0.00,,---,0.00,VWS V13.01,2013-03-11 15:29:00,
2013-03-11 11:32:00,48.0,39.4,29.53,South,180,3.6,3.6,72,0.00,,---,0.00,VWS V13.01,2013-03-11 15:32:00,
2013-03-11 11:33:00,48.0,39.4,29.53,South,180,3.6,3.6,72,0.00,,---,0.00,VWS V13.01,2013-03-11 15:33:00,
2013-03-11 11:34:00,48.0,39.4,29.53,South,180,1.1,1.1,72,0.00,,---,0.00,VWS V13.01,2013-03-11 15:34:00,
2013-03-11 11:38:00,48.0,39.4,29.53,SE,135,4.0,4.0,72,0.00,,---,0.00,VWS V13.01,2013-03-11 15:38:00,
2013-03-11 11:39:00,48.0,39.1,29.53,SE,135,0.9,1.6,71,0.00,,---,0.00,VWS V13.01,2013-03-11 15:39:00,
2013-03-11 11:40:00,48.0,39.1,29.53,SE,135,0.9,0.9,71,0.00,,---,0.00,VWS V13.01,2013-03-11 15:40:00,
2013-03-11 11:43:00,48.0,39.1,29.53,South,180,1.3,1.6,71,0.00,,---,0.00,VWS V13.01,2013-03-11 15:43:00,
2013-03-11 11:44:00,48.0,39.1,29.53,West,270,2.7,2.7,71,0.00,,---,0.00,VWS V13.01,2013-03-11 15:44:00,
2013-03-11 11:45:00,48.0,39.1,29.53,SSE,158,0.0,0.0,71,0.00,,---,0.00,VWS V13.01,2013-03-11 15:45:00,
2013-03-11 11:48:00,48.2,39.2,29.53,South,180,2.9,2.9,71,0.00,,---,0.00,VWS V13.01,2013-03-11 15:48:00,
2013-03-11 11:50:00,48.2,39.2,29.53,South,180,1.6,1.6,71,0.00,,---,0.00,VWS V13.01,2013-03-11 15:50:00,
2013-03-11 11:53:00,48.2,39.2,29.50,WSW,248,0.0,0.0,71,0.00,,---,0.00,VWS V13.01,2013-03-11 15:53:00,
2013-03-11 11:56:00,48.6,39.6,29.50,SSW,202,0.9,0.9,71,0.00,,---,0.00,VWS V13.01,2013-03-11 15:56:00,
2013-03-11 11:57:00,48.6,39.6,29.50,SSW,202,0.9,0.9,71,0.00,,---,0.00,VWS V13.01,2013-03-11 15:57:00,
2013-03-11 11:58:00,48.6,39.6,29.50,SSW,202,0.0,0.0,71,0.00,,---,0.00,VWS V13.01,2013-03-11 15:58:00,
2013-03-11 11:59:00,48.6,39.6,29.50,SSW,202,0.9,0.9,71,0.00,,---,0.00,VWS V13.01,2013-03-11 15:59:00,
2013-03-11 12:02:00,48.6,39.6,29.50,South,180,0.0,0.9,71,0.00,,---,0.00,VWS V13.01,2013-03-11 16:02:00,
2013-03-11 12:03:00,48.6,39.6,29.50,SSW,202,1.1,1.1,71,0.00,,---,0.00,VWS V13.01,2013-03-11 16:03:00,
2013-03-11 12:04:00,48.6,39.6,29.50,SSW,202,0.9,1.1,71,0.00,,---,0.00,VWS V13.01,2013-03-11 16:04:00,
2013-03-11 12:07:00,48.6,39.6,29.50,WSW,248,2.5,2.5,71,0.00,,---,0.00,VWS V13.01,2013-03-11 16:07:00,
2013-03-11 12:08:00,48.6,39.6,29.50,East,90,2.9,2.9,71,0.00,,---,0.00,VWS V13.01,2013-03-11 16:08:00,
2013-03-11 12:09:00,48.6,39.6,29.50,East,90,2.9,2.9,71,0.00,,---,0.00,VWS V13.01,2013-03-11 16:09:00,
2013-03-11 12:12:00,49.5,40.1,29.50,South,180,0.9,1.1,70,0.00,,---,0.00,VWS V13.01,2013-03-11 16:12:00,
2013-03-11 12:13:00,49.5,40.1,29.50,SE,135,2.9,2.9,70,0.00,,---,0.00,VWS V13.01,2013-03-11 16:13:00,
2013-03-11 12:15:00,49.5,40.1,29.50,SE,135,0.0,0.0,70,0.00,,---,0.00,VWS V13.01,2013-03-11 16:15:00,
2013-03-11 12:18:00,50.2,40.4,29.50,SE,135,0.9,0.9,69,0.00,,---,0.00,VWS V13.01,2013-03-11 16:18:00,
2013-03-11 12:19:00,50.2,40.4,29.50,SSW,202,2.5,2.5,69,0.00,,---,0.00,VWS V13.01,2013-03-11 16:19:00,
2013-03-11 12:23:00,50.2,40.4,29.50,SSE,158,4.3,4.3,69,0.00,,---,0.00,VWS V13.01,2013-03-11 16:23:00,
2013-03-11 12:24:00,50.2,40.4,29.50,SSW,202,2.0,4.7,69,0.00,,---,0.00,VWS V13.01,2013-03-11 16:24:00,
2013-03-11 12:25:00,50.2,40.4,29.50,SSW,202,2.0,2.0,69,0.00,,---,0.00,VWS V13.01,2013-03-11 16:25:00,
2013-03-11 12:28:00,50.7,40.6,29.50,South,180,0.0,1.1,68,0.00,,---,0.00,VWS V13.01,2013-03-11 16:28:00,
2013-03-11 12:29:00,50.7,40.6,29.50,SSW,202,0.0,0.0,68,0.00,,---,0.00,VWS V13.01,2013-03-11 16:29:00,
2013-03-11 12:30:00,50.7,40.6,29.50,SSW,202,0.0,0.0,68,0.00,,---,0.00,VWS V13.01,2013-03-11 16:30:00,
2013-03-11 12:33:00,50.4,40.2,29.50,South,180,0.0,2.9,68,0.00,,---,0.00,VWS V13.01,2013-03-11 16:33:00,
2013-03-11 12:34:00,50.4,40.2,29.50,South,180,0.0,0.0,68,0.00,,---,0.00,VWS V13.01,2013-03-11 16:34:00,
2013-03-11 12:35:00,50.4,40.2,29.50,South,180,0.0,0.0,68,0.00,,---,0.00,VWS V13.01,2013-03-11 16:35:00,
2013-03-11 12:39:00,50.5,40.4,29.53,SSW,202,0.0,0.0,68,0.00,,---,0.00,VWS V13.01,2013-03-11 16:39:00,
2013-03-11 12:40:00,50.7,40.6,29.53,South,180,1.1,1.1,68,0.00,,---,0.00,VWS V13.01,2013-03-11 16:40:00,
2013-03-11 12:44:00,50.7,40.6,29.53,South,180,1.3,1.3,68,0.00,,---,0.00,VWS V13.01,2013-03-11 16:44:00,
2013-03-11 12:45:00,50.7,40.6,29.53,South,180,1.3,1.3,68,0.00,,---,0.00,VWS V13.01,2013-03-11 16:45:00,
2013-03-11 12:49:00,51.1,40.5,29.53,SSW,202,1.1,1.1,67,0.00,,---,0.00,VWS V13.01,2013-03-11 16:49:00,
2013-03-11 12:50:00,51.1,40.5,29.53,SW,225,2.7,2.7,67,0.00,,---,0.00,VWS V13.01,2013-03-11 16:50:00,
2013-03-11 12:54:00,51.8,40.8,29.53,ESE,112,5.4,5.4,66,0.00,,---,0.00,VWS V13.01,2013-03-11 16:54:00,
2013-03-11 12:55:00,51.8,40.8,29.53,SE,135,4.3,4.3,66,0.00,,---,0.00,VWS V13.01,2013-03-11 16:55:00,
2013-03-11 12:56:00,51.8,40.8,29.53,SE,135,1.1,3.6,66,0.00,,---,0.00,VWS V13.01,2013-03-11 16:56:00,
2013-03-11 12:59:00,51.8,40.8,29.53,SSE,158,2.5,2.5,66,0.00,,---,0.00,VWS V13.01,2013-03-11 16:59:00,
2013-03-11 13:00:00,51.8,40.8,29.53,SSW,202,2.0,2.0,66,0.00,,---,0.00,VWS V13.01,2013-03-11 17:00:00,
2013-03-11 13:01:00,52.0,41.0,29.53,SSW,202,2.9,3.8,66,0.00,,---,0.00,VWS V13.01,2013-03-11 17:01:00,
2013-03-11 13:04:00,52.0,41.0,29.53,SW,225,0.9,0.9,66,0.00,,---,0.00,VWS V13.01,2013-03-11 17:04:00,
2013-03-11 13:05:00,52.0,41.0,29.53,South,180,2.0,2.0,66,0.00,,---,0.00,VWS V13.01,2013-03-11 17:05:00,
2013-03-11 13:06:00,52.0,41.0,29.53,SE,135,2.0,2.0,66,0.00,,---,0.00,VWS V13.01,2013-03-11 17:06:00,
2013-03-11 13:09:00,52.0,41.0,29.53,SSW,202,3.8,3.8,66,0.00,,---,0.00,VWS V13.01,2013-03-11 17:09:00,
2013-03-11 13:10:00,52.0,41.0,29.50,SSW,202,3.8,3.8,66,0.00,,---,0.00,VWS V13.01,2013-03-11 17:10:00,
2013-03-11 13:12:00,52.3,40.5,29.50,SSW,202,2.9,2.9,64,0.00,,---,0.00,VWS V13.01,2013-03-11 17:12:00,
2013-03-11 13:14:00,52.3,40.5,29.50,SSW,202,0.9,1.1,64,0.00,,---,0.00,VWS V13.01,2013-03-11 17:14:00,
2013-03-11 13:15:00,52.3,40.5,29.50,SSW,202,0.9,1.1,64,0.00,,---,0.00,VWS V13.01,2013-03-11 17:15:00,
2013-03-11 13:18:00,52.9,41.0,29.50,SSW,202,2.5,2.5,64,0.00,,---,0.00,VWS V13.01,2013-03-11 17:18:00,
2013-03-11 13:19:00,52.9,41.0,29.50,South,180,1.6,2.5,64,0.00,,---,0.00,VWS V13.01,2013-03-11 17:19:00,
2013-03-11 13:20:00,52.9,41.0,29.50,South,180,1.6,1.6,64,0.00,,---,0.00,VWS V13.01,2013-03-11 17:20:00,
2013-03-11 13:23:00,52.9,41.0,29.50,SSW,202,2.0,2.0,64,0.00,,---,0.00,VWS V13.01,2013-03-11 17:23:00,
2013-03-11 13:24:00,52.9,41.0,29.50,NNW,338,3.4,3.4,64,0.00,,---,0.00,VWS V13.01,2013-03-11 17:24:00,
2013-03-11 13:25:00,52.9,41.0,29.50,SW,225,3.4,3.4,64,0.00,,---,0.00,VWS V13.01,2013-03-11 17:25:00,
2013-03-11 13:29:00,52.9,41.0,29.50,SW,225,2.9,2.9,64,0.00,,---,0.00,VWS V13.01,2013-03-11 17:29:00,
2013-03-11 13:32:00,52.9,41.0,29.50,WSW,248,2.5,2.5,64,0.00,,---,0.00,VWS V13.01,2013-03-11 17:32:00,
2013-03-11 13:34:00,52.9,40.6,29.50,SSE,158,1.3,1.3,63,0.00,,---,0.00,VWS V13.01,2013-03-11 17:34:00,
2013-03-11 13:35:00,52.9,40.6,29.50,SSE,158,1.3,1.3,63,0.00,,---,0.00,VWS V13.01,2013-03-11 17:35:00,
2013-03-11 13:37:00,52.9,40.6,29.50,WSW,248,1.6,1.6,63,0.00,,---,0.00,VWS V13.01,2013-03-11 17:37:00,
2013-03-11 13:39:00,52.9,40.6,29.50,SW,225,2.9,2.9,63,0.00,,---,0.00,VWS V13.01,2013-03-11 17:39:00,
2013-03-11 13:40:00,53.6,41.3,29.50,West,270,2.7,2.9,63,0.00,,---,0.00,VWS V13.01,2013-03-11 17:40:00,
2013-03-11 13:43:00,53.6,41.3,29.50,SW,225,3.1,3.1,63,0.00,,---,0.00,VWS V13.01,2013-03-11 17:43:00,
2013-03-11 13:44:00,53.6,41.3,29.50,SSW,202,1.6,2.0,63,0.00,,---,0.00,VWS V13.01,2013-03-11 17:44:00,
2013-03-11 13:46:00,53.6,41.3,29.50,SSE,158,3.4,3.4,63,0.00,,---,0.00,VWS V13.01,2013-03-11 17:46:00,
2013-03-11 13:48:00,53.6,41.3,29.50,South,180,1.1,1.1,63,0.00,,---,0.00,VWS V13.01,2013-03-11 17:48:00,
2013-03-11 13:49:00,53.6,41.3,29.50,South,180,2.5,2.5,63,0.00,,---,0.00,VWS V13.01,2013-03-11 17:49:00,
2013-03-11 13:50:00,53.6,41.3,29.50,South,180,1.1,1.1,63,0.00,,---,0.00,VWS V13.01,2013-03-11 17:50:00,
2013-03-11 13:52:00,54.1,41.4,29.50,WSW,248,3.1,3.1,62,0.00,,---,0.00,VWS V13.01,2013-03-11 17:52:00,
2013-03-11 13:53:00,54.1,41.4,29.50,WSW,248,3.1,3.1,62,0.00,,---,0.00,VWS V13.01,2013-03-11 17:53:00,
2013-03-11 13:54:00,54.1,41.4,29.50,SSW,202,2.5,2.5,62,0.00,,---,0.00,VWS V13.01,2013-03-11 17:54:00,
2013-03-11 13:55:00,54.1,41.4,29.50,SSW,202,2.5,2.5,62,0.00,,---,0.00,VWS V13.01,2013-03-11 17:55:00,
2013-03-11 13:58:00,54.1,41.4,29.50,SSW,202,1.6,2.7,62,0.00,,---,0.00,VWS V13.01,2013-03-11 17:58:00,
2013-03-11 13:59:00,54.1,41.4,29.50,SSW,202,1.3,1.3,62,0.00,,---,0.00,VWS V13.01,2013-03-11 17:59:00,
2013-03-11 14:00:00,54.1,41.4,29.50,SW,225,1.6,1.6,62,0.00,,---,0.00,VWS V13.01,2013-03-11 18:00:00,
2013-03-11 14:03:00,54.7,41.1,29.50,SW,225,2.7,2.7,60,0.00,,---,0.00,VWS V13.01,2013-03-11 18:03:00,
2013-03-11 14:04:00,54.7,41.1,29.50,SW,225,0.9,2.7,60,0.00,,---,0.00,VWS V13.01,2013-03-11 18:04:00,
2013-03-11 14:05:00,54.7,41.1,29.50,SW,225,0.9,0.9,60,0.00,,---,0.00,VWS V13.01,2013-03-11 18:05:00,
2013-03-11 14:08:00,54.7,41.1,29.47,South,180,1.3,6.3,60,0.00,,---,0.00,VWS V13.01,2013-03-11 18:08:00,
2013-03-11 14:09:00,54.7,41.1,29.47,South,180,1.3,1.3,60,0.00,,---,0.00,VWS V13.01,2013-03-11 18:09:00,
2013-03-11 14:10:00,54.7,41.1,29.47,SSE,158,1.1,1.1,60,0.00,,---,0.00,VWS V13.01,2013-03-11 18:10:00,
2013-03-11 14:13:00,54.7,41.1,29.47,South,180,1.3,1.3,60,0.00,,---,0.00,VWS V13.01,2013-03-11 18:13:00,
2013-03-11 14:14:00,54.7,41.1,29.47,SE,135,2.7,2.7,60,0.00,,---,0.00,VWS V13.01,2013-03-11 18:14:00,
2013-03-11 14:15:00,54.7,41.1,29.47,SE,135,2.7,2.7,60,0.00,,---,0.00,VWS V13.01,2013-03-11 18:15:00,
2013-03-11 14:18:00,54.7,41.1,29.47,SW,225,1.6,2.0,60,0.00,,---,0.00,VWS V13.01,2013-03-11 18:18:00,
2013-03-11 14:19:00,54.7,41.1,29.47,SW,225,1.6,1.6,60,0.00,,---,0.00,VWS V13.01,2013-03-11 18:19:00,
2013-03-11 14:20:00,54.7,41.1,29.47,SSE,158,4.3,4.3,60,0.00,,---,0.00,VWS V13.01,2013-03-11 18:20:00,
2013-03-11 14:23:00,54.7,41.1,29.47,SSW,202,1.3,1.6,60,0.00,,---,0.00,VWS V13.01,2013-03-11 18:23:00,
2013-03-11 14:24:00,54.7,41.1,29.47,SSE,158,3.4,3.4,60,0.00,,---,0.00,VWS V13.01,2013-03-11 18:24:00,
2013-03-11 14:25:00,54.7,41.1,29.47,South,180,6.0,6.0,60,0.00,,---,0.00,VWS V13.01,2013-03-11 18:25:00,
2013-03-11 14:29:00,54.5,40.9,29.47,SW,225,0.0,0.0,60,0.00,,---,0.00,VWS V13.01,2013-03-11 18:29:00,
2013-03-11 14:30:00,54.5,40.9,29.47,SSW,202,0.9,0.9,60,0.00,,---,0.00,VWS V13.01,2013-03-11 18:30:00,
2013-03-11 14:34:00,54.5,40.9,29.47,SSW,202,0.9,0.9,60,0.00,,---,0.00,VWS V13.01,2013-03-11 18:34:00,
2013-03-11 14:35:00,54.5,40.9,29.47,SSW,202,0.9,0.9,60,0.00,,---,0.00,VWS V13.01,2013-03-11 18:35:00,
2013-03-11 14:39:00,54.5,40.9,29.47,SSE,158,2.2,2.2,60,0.00,,---,0.00,VWS V13.01,2013-03-11 18:39:00,
2013-03-11 14:40:00,54.3,40.3,29.47,South,180,1.6,2.2,59,0.00,,---,0.00,VWS V13.01,2013-03-11 18:40:00,
2013-03-11 14:41:00,54.3,40.3,29.47,WSW,248,0.9,1.6,59,0.00,,---,0.00,VWS V13.01,2013-03-11 18:41:00,
2013-03-11 14:44:00,54.3,40.3,29.47,SE,135,1.3,1.3,59,0.00,,---,0.00,VWS V13.01,2013-03-11 18:44:00,
2013-03-11 14:45:00,54.3,40.3,29.47,SSE,158,3.4,3.4,59,0.00,,---,0.00,VWS V13.01,2013-03-11 18:45:00,
2013-03-11 14:46:00,54.3,40.3,29.47,SSW,202,2.0,3.4,59,0.00,,---,0.00,VWS V13.01,2013-03-11 18:46:00,
2013-03-11 14:49:00,54.9,41.2,29.47,SSW,202,0.9,1.3,60,0.00,,---,0.00,VWS V13.01,2013-03-11 18:49:00,
2013-03-11 14:50:00,54.9,41.2,29.47,SSW,202,0.9,0.9,60,0.00,,---,0.00,VWS V13.01,2013-03-11 18:50:00,
2013-03-11 14:51:00,54.9,41.2,29.47,ESE,112,3.4,3.4,60,0.00,,---,0.00,VWS V13.01,2013-03-11 18:51:00,
2013-03-11 14:54:00,54.9,41.2,29.47,South,180,0.0,0.0,60,0.00,,---,0.00,VWS V13.01,2013-03-11 18:54:00,
2013-03-11 14:55:00,54.9,41.2,29.47,SSE,158,0.9,0.9,60,0.00,,---,0.00,VWS V13.01,2013-03-11 18:55:00,
2013-03-11 14:58:00,54.5,40.9,29.47,SSW,202,0.0,0.0,60,0.00,,---,0.00,VWS V13.01,2013-03-11 18:58:00,
2013-03-11 14:59:00,54.5,40.9,29.47,SSE,158,0.0,2.5,60,0.00,,---,0.00,VWS V13.01,2013-03-11 18:59:00,
2013-03-11 15:01:00,54.5,40.9,29.47,SE,135,2.5,2.5,60,0.00,,---,0.00,VWS V13.01,2013-03-11 19:01:00,
2013-03-11 15:02:00,54.5,40.9,29.47,SE,135,2.5,2.5,60,0.00,,---,0.00,VWS V13.01,2013-03-11 19:02:00,
2013-03-11 15:03:00,54.5,40.9,29.47,ESE,112,3.6,3.6,60,0.00,,---,0.00,VWS V13.01,2013-03-11 19:03:00,
2013-03-11 15:04:00,54.5,40.9,29.47,ESE,112,2.2,3.6,60,0.00,,---,0.00,VWS V13.01,2013-03-11 19:04:00,
2013-03-11 15:07:00,54.5,40.9,29.47,SSE,158,4.9,4.9,60,0.00,,---,0.00,VWS V13.01,2013-03-11 19:07:00,
2013-03-11 15:09:00,54.5,40.9,29.47,SSE,158,4.9,4.9,60,0.00,,---,0.00,VWS V13.01,2013-03-11 19:09:00,
2013-03-11 15:12:00,54.5,40.9,29.47,SE,135,0.0,0.0,60,0.00,,---,0.00,VWS V13.01,2013-03-11 19:12:00,
2013-03-11 15:14:00,54.5,40.9,29.47,East,90,2.7,2.7,60,0.00,,---,0.00,VWS V13.01,2013-03-11 19:14:00,
2013-03-11 15:17:00,53.4,39.9,29.47,South,180,1.6,1.6,60,0.00,,---,0.00,VWS V13.01,2013-03-11 19:17:00,
2013-03-11 15:19:00,53.4,39.9,29.47,SSW,202,1.1,1.1,60,0.00,,---,0.00,VWS V13.01,2013-03-11 19:19:00,
2013-03-11 15:20:00,53.4,39.9,29.47,WSW,248,1.3,1.3,60,0.00,,---,0.00,VWS V13.01,2013-03-11 19:20:00,
2013-03-11 15:22:00,53.4,39.9,29.47,SW,225,3.4,3.4,60,0.00,,---,0.00,VWS V13.01,2013-03-11 19:22:00,
2013-03-11 15:24:00,53.4,39.9,29.47,SSE,158,3.8,3.8,60,0.00,,---,0.00,VWS V13.01,2013-03-11 19:24:00,
2013-03-11 15:25:00,53.4,39.9,29.47,SSE,158,3.8,3.8,60,0.00,,---,0.00,VWS V13.01,2013-03-11 19:25:00,
2013-03-11 15:27:00,53.2,39.3,29.47,SSW,202,2.0,2.0,59,0.00,,---,0.00,VWS V13.01,2013-03-11 19:27:00,
2013-03-11 15:29:00,53.2,39.3,29.47,South,180,1.1,1.1,59,0.00,,---,0.00,VWS V13.01,2013-03-11 19:29:00,
2013-03-11 15:30:00,53.2,39.3,29.47,South,180,1.1,1.1,59,0.00,,---,0.00,VWS V13.01,2013-03-11 19:30:00,
2013-03-11 15:32:00,53.2,39.3,29.47,SSE,158,2.0,2.9,59,0.00,,---,0.00,VWS V13.01,2013-03-11 19:32:00,
2013-03-11 15:35:00,53.2,39.3,29.47,South,180,2.0,2.0,59,0.00,,---,0.00,VWS V13.01,2013-03-11 19:35:00,
2013-03-11 15:38:00,53.2,39.3,29.44,South,180,1.6,1.6,59,0.00,,---,0.00,VWS V13.01,2013-03-11 19:38:00,
2013-03-11 15:40:00,53.2,39.3,29.44,SSW,202,0.0,0.0,59,0.00,,---,0.00,VWS V13.01,2013-03-11 19:40:00,
2013-03-11 15:43:00,53.4,39.9,29.44,South,180,4.0,4.0,60,0.00,,---,0.00,VWS V13.01,2013-03-11 19:43:00,
2013-03-11 15:45:00,53.4,39.9,29.44,South,180,4.9,4.9,60,0.00,,---,0.00,VWS V13.01,2013-03-11 19:45:00,
2013-03-11 15:48:00,53.2,39.7,29.44,SE,135,2.2,2.2,60,0.00,,---,0.00,VWS V13.01,2013-03-11 19:48:00,
2013-03-11 15:50:00,53.1,39.6,29.44,SSE,158,1.3,1.3,60,0.00,,---,0.00,VWS V13.01,2013-03-11 19:50:00,
2013-03-11 15:53:00,53.1,39.6,29.44,SW,225,0.0,0.0,60,0.00,,---,0.00,VWS V13.01,2013-03-11 19:53:00,
2013-03-11 15:55:00,53.1,39.6,29.44,South,180,1.6,1.6,60,0.00,,---,0.00,VWS V13.01,2013-03-11 19:55:00,
2013-03-11 15:58:00,53.1,39.6,29.44,ESE,112,2.2,3.4,60,0.00,,---,0.00,VWS V13.01,2013-03-11 19:58:00,
2013-03-11 16:00:00,53.1,39.6,29.44,South,180,1.1,3.4,60,0.00,,---,0.00,VWS V13.01,2013-03-11 20:00:00,
2013-03-11 16:03:00,53.1,39.6,29.44,SSE,158,0.9,2.5,60,0.00,,---,0.00,VWS V13.01,2013-03-11 20:03:00,
2013-03-11 16:05:00,53.1,39.6,29.44,SSE,158,1.6,1.6,60,0.00,,---,0.00,VWS V13.01,2013-03-11 20:05:00,
2013-03-11 16:09:00,53.1,39.6,29.44,SE,135,3.6,3.6,60,0.00,,---,0.00,VWS V13.01,2013-03-11 20:09:00,
2013-03-11 16:10:00,53.1,39.6,29.44,SSE,158,3.6,4.9,60,0.00,,---,0.00,VWS V13.01,2013-03-11 20:10:00,
2013-03-11 16:14:00,53.1,39.6,29.44,SSE,158,1.3,1.3,60,0.00,,---,0.00,VWS V13.01,2013-03-11 20:14:00,
2013-03-11 16:15:00,51.8,38.8,29.44,SE,135,2.2,2.2,61,0.00,,---,0.00,VWS V13.01,2013-03-11 20:15:00,
2013-03-11 16:19:00,51.8,38.8,29.44,WSW,248,0.9,2.5,61,0.00,,---,0.00,VWS V13.01,2013-03-11 20:19:00,
2013-03-11 16:20:00,51.6,39.0,29.44,WSW,248,0.9,0.9,62,0.00,,---,0.00,VWS V13.01,2013-03-11 20:20:00,
2013-03-11 16:21:00,51.6,39.0,29.44,South,180,2.2,2.2,62,0.00,,---,0.00,VWS V13.01,2013-03-11 20:21:00,
2013-03-11 16:24:00,51.6,39.0,29.44,SSE,158,2.5,2.5,62,0.00,,---,0.00,VWS V13.01,2013-03-11 20:24:00,
2013-03-11 16:26:00,51.6,39.0,29.44,SSE,158,3.1,5.4,62,0.00,,---,0.00,VWS V13.01,2013-03-11 20:26:00,
2013-03-11 16:29:00,51.1,38.5,29.44,ESE,112,3.6,3.6,62,0.00,,---,0.00,VWS V13.01,2013-03-11 20:29:00,
2013-03-11 16:31:00,51.1,38.5,29.44,SSE,158,3.1,3.1,62,0.00,,---,0.00,VWS V13.01,2013-03-11 20:31:00,
2013-03-11 16:32:00,51.1,38.5,29.44,SSE,158,3.1,3.1,62,0.00,,---,0.00,VWS V13.01,2013-03-11 20:32:00,
2013-03-11 16:34:00,50.9,38.8,29.44,West,270,4.9,4.9,63,0.00,,---,0.00,VWS V13.01,2013-03-11 20:34:00,
2013-03-11 16:36:00,50.7,38.6,29.44,ESE,112,3.1,3.1,63,0.00,,---,0.00,VWS V13.01,2013-03-11 20:36:00,
2013-03-11 16:37:00,50.7,38.6,29.44,ESE,112,3.1,3.1,63,0.00,,---,0.00,VWS V13.01,2013-03-11 20:37:00,
2013-03-11 16:39:00,50.7,38.6,29.44,SSE,158,3.4,3.4,63,0.00,,---,0.00,VWS V13.01,2013-03-11 20:39:00,
2013-03-11 16:42:00,50.7,38.6,29.44,SSW,202,0.0,2.9,63,0.00,,---,0.00,VWS V13.01,2013-03-11 20:42:00,
2013-03-11 16:43:00,50.7,38.6,29.44,SSW,202,0.0,0.0,63,0.00,,---,0.00,VWS V13.01,2013-03-11 20:43:00,
2013-03-11 16:44:00,50.7,38.6,29.44,SSE,158,1.1,1.1,63,0.00,,---,0.00,VWS V13.01,2013-03-11 20:44:00,
2013-03-11 16:45:00,50.7,38.6,29.44,SSE,158,1.1,1.1,63,0.00,,---,0.00,VWS V13.01,2013-03-11 20:45:00,
2013-03-11 16:48:00,50.7,38.6,29.44,SSE,158,2.7,2.7,63,0.00,,---,0.00,VWS V13.01,2013-03-11 20:48:00,
2013-03-11 16:49:00,50.7,38.6,29.44,SSE,158,3.4,3.4,63,0.00,,---,0.00,VWS V13.01,2013-03-11 20:49:00,
2013-03-11 16:50:00,50.2,38.5,29.44,SSE,158,3.4,3.4,64,0.00,,---,0.00,VWS V13.01,2013-03-11 20:50:00,
2013-03-11 16:53:00,50.2,38.5,29.44,SSW,202,2.7,2.7,64,0.00,,---,0.00,VWS V13.01,2013-03-11 20:53:00,
2013-03-11 16:54:00,50.2,38.5,29.44,SE,135,2.7,2.7,64,0.00,,---,0.00,VWS V13.01,2013-03-11 20:54:00,
2013-03-11 16:55:00,50.2,38.5,29.44,SE,135,2.7,2.7,64,0.00,,---,0.00,VWS V13.01,2013-03-11 20:55:00,
2013-03-11 16:58:00,50.0,38.7,29.44,SSW,202,0.0,0.0,65,0.00,,---,0.00,VWS V13.01,2013-03-11 20:58:00,
2013-03-11 16:59:00,50.0,38.7,29.44,South,180,0.9,0.9,65,0.00,,---,0.00,VWS V13.01,2013-03-11 20:59:00,
2013-03-11 17:00:00,50.0,38.7,29.44,SSW,202,1.3,1.3,65,0.00,,---,0.00,VWS V13.01,2013-03-11 21:00:00,
2013-03-11 17:03:00,50.0,38.7,29.44,SSE,158,1.1,1.1,65,0.00,,---,0.00,VWS V13.01,2013-03-11 21:03:00,
2013-03-11 17:04:00,50.0,38.7,29.44,SE,135,1.6,1.6,65,0.00,,---,0.00,VWS V13.01,2013-03-11 21:04:00,
2013-03-11 17:05:00,50.0,38.7,29.44,SE,135,1.6,1.6,65,0.00,,---,0.00,VWS V13.01,2013-03-11 21:05:00,
2013-03-11 17:08:00,50.0,38.7,29.44,SSW,202,4.0,4.0,65,0.00,,---,0.00,VWS V13.01,2013-03-11 21:08:00,
2013-03-11 17:10:00,49.5,38.6,29.44,SSE,158,0.0,0.0,66,0.00,,---,0.00,VWS V13.01,2013-03-11 21:10:00,
2013-03-11 17:13:00,49.5,38.6,29.44,South,180,6.5,6.5,66,0.00,,---,0.00,VWS V13.01,2013-03-11 21:13:00,
2013-03-11 17:15:00,49.5,38.6,29.44,SSW,202,2.7,3.6,66,0.00,,---,0.00,VWS V13.01,2013-03-11 21:15:00,
2013-03-11 17:18:00,49.5,38.6,29.44,SSE,158,0.9,0.9,66,0.00,,---,0.00,VWS V13.01,2013-03-11 21:18:00,
2013-03-11 17:19:00,49.5,38.6,29.44,South,180,0.0,0.0,66,0.00,,---,0.00,VWS V13.01,2013-03-11 21:19:00,
2013-03-11 17:20:00,49.5,38.6,29.44,East,90,1.3,1.3,66,0.00,,---,0.00,VWS V13.01,2013-03-11 21:20:00,
2013-03-11 17:23:00,49.5,38.6,29.44,SSW,202,2.0,2.0,66,0.00,,---,0.00,VWS V13.01,2013-03-11 21:23:00,
2013-03-11 17:25:00,49.5,38.6,29.44,SSE,158,2.7,2.7,66,0.00,,---,0.00,VWS V13.01,2013-03-11 21:25:00,
2013-03-11 17:26:00,48.9,38.5,29.44,SSW,202,2.0,2.7,67,0.00,,---,0.00,VWS V13.01,2013-03-11 21:26:00,
2013-03-11 17:28:00,48.9,38.5,29.44,SSE,158,2.9,4.3,67,0.00,,---,0.00,VWS V13.01,2013-03-11 21:28:00,
2013-03-11 17:30:00,48.9,38.5,29.44,South,180,0.0,1.3,67,0.00,,---,0.00,VWS V13.01,2013-03-11 21:30:00,
2013-03-11 17:31:00,48.9,38.5,29.44,SSE,158,2.7,2.7,67,0.00,,---,0.00,VWS V13.01,2013-03-11 21:31:00,
2013-03-11 17:34:00,48.9,38.5,29.44,SSE,158,1.1,1.1,67,0.00,,---,0.00,VWS V13.01,2013-03-11 21:34:00,
2013-03-11 17:35:00,48.9,38.5,29.44,South,180,1.1,1.1,67,0.00,,---,0.00,VWS V13.01,2013-03-11 21:35:00,
2013-03-11 17:36:00,48.9,38.5,29.44,SSE,158,3.1,3.1,67,0.00,,---,0.00,VWS V13.01,2013-03-11 21:36:00,
2013-03-11 17:37:00,48.9,38.5,29.44,SSE,158,5.4,5.4,67,0.00,,---,0.00,VWS V13.01,2013-03-11 21:37:00,
2013-03-11 17:39:00,48.6,38.1,29.44,SSW,202,6.3,6.3,67,0.00,,---,0.00,VWS V13.01,2013-03-11 21:39:00,
2013-03-11 17:40:00,48.6,38.1,29.44,SSW,202,6.3,6.3,67,0.00,,---,0.00,VWS V13.01,2013-03-11 21:40:00,
2013-03-11 17:41:00,48.6,38.1,29.44,South,180,5.8,5.8,67,0.00,,---,0.00,VWS V13.01,2013-03-11 21:41:00,
2013-03-11 17:43:00,48.2,38.2,29.44,South,180,3.1,3.1,68,0.00,,---,0.00,VWS V13.01,2013-03-11 21:43:00,
2013-03-11 17:44:00,48.2,38.2,29.44,SSE,158,0.0,3.1,68,0.00,,---,0.00,VWS V13.01,2013-03-11 21:44:00,
2013-03-11 17:45:00,48.2,38.2,29.44,South,180,2.2,2.2,68,0.00,,---,0.00,VWS V13.01,2013-03-11 21:45:00,
2013-03-11 17:47:00,48.2,38.2,29.44,SW,225,0.0,0.0,68,0.00,,---,0.00,VWS V13.01,2013-03-11 21:47:00,
2013-03-11 17:48:00,48.2,38.2,29.44,SE,135,3.8,3.8,68,0.00,,---,0.00,VWS V13.01,2013-03-11 21:48:00,
2013-03-11 17:49:00,48.2,38.2,29.44,South,180,5.6,5.6,68,0.00,,---,0.00,VWS V13.01,2013-03-11 21:49:00,
2013-03-11 17:50:00,48.0,38.3,29.44,SSE,158,2.0,5.6,69,0.00,,---,0.00,VWS V13.01,2013-03-11 21:50:00,
2013-03-11 17:53:00,47.8,38.2,29.44,SSE,158,1.3,1.3,69,0.00,,---,0.00,VWS V13.01,2013-03-11 21:53:00,
2013-03-11 17:54:00,47.8,38.2,29.44,SSE,158,1.3,1.3,69,0.00,,---,0.00,VWS V13.01,2013-03-11 21:54:00,
2013-03-11 17:55:00,47.8,38.2,29.44,SSW,202,3.6,3.6,69,0.00,,---,0.00,VWS V13.01,2013-03-11 21:55:00,
2013-03-11 17:58:00,47.7,38.4,29.44,SSW,202,0.0,0.0,70,0.00,,---,0.00,VWS V13.01,2013-03-11 21:58:00,
2013-03-11 17:59:00,47.7,38.4,29.44,SSW,202,0.0,0.0,70,0.00,,---,0.00,VWS V13.01,2013-03-11 21:59:00,
2013-03-11 18:00:00,47.7,38.4,29.44,SSE,158,3.1,3.1,70,0.00,,---,0.00,VWS V13.01,2013-03-11 22:00:00,
2013-03-11 18:03:00,47.7,38.4,29.44,SSE,158,2.0,2.2,70,0.00,,---,0.00,VWS V13.01,2013-03-11 22:03:00,
2013-03-11 18:04:00,47.7,38.4,29.44,SSE,158,2.0,2.0,70,0.00,,---,0.00,VWS V13.01,2013-03-11 22:04:00,
2013-03-11 18:05:00,47.7,38.4,29.44,SSE,158,2.0,2.0,70,0.00,,---,0.00,VWS V13.01,2013-03-11 22:05:00,
2013-03-11 18:09:00,47.5,38.2,29.44,SSE,158,2.9,2.9,70,0.00,,---,0.00,VWS V13.01,2013-03-11 22:09:00,
2013-03-11 18:10:00,47.5,38.2,29.44,SSE,158,0.0,0.0,70,0.00,,---,0.00,VWS V13.01,2013-03-11 22:10:00,
2013-03-11 18:11:00,47.5,38.2,29.44,SSE,158,0.0,0.0,70,0.00,,---,0.00,VWS V13.01,2013-03-11 22:11:00,
2013-03-11 18:14:00,47.5,38.2,29.44,WSW,248,1.1,3.8,70,0.00,,---,0.00,VWS V13.01,2013-03-11 22:14:00,
2013-03-11 18:16:00,47.3,38.4,29.44,SSE,158,3.1,3.1,71,0.00,,---,0.00,VWS V13.01,2013-03-11 22:16:00,
2013-03-11 18:19:00,47.3,38.4,29.44,SSE,158,1.3,1.3,71,0.00,,---,0.00,VWS V13.01,2013-03-11 22:19:00,
2013-03-11 18:21:00,47.3,38.7,29.44,South,180,4.9,4.9,72,0.00,,---,0.00,VWS V13.01,2013-03-11 22:21:00,
2013-03-11 18:24:00,47.3,38.7,29.44,SSE,158,3.6,3.6,72,0.00,,---,0.00,VWS V13.01,2013-03-11 22:24:00,
2013-03-11 18:27:00,47.3,38.7,29.44,South,180,2.0,2.0,72,0.00,,---,0.00,VWS V13.01,2013-03-11 22:27:00,
2013-03-11 18:28:00,47.3,38.7,29.44,South,180,2.0,2.0,72,0.00,,---,0.00,VWS V13.01,2013-03-11 22:28:00,
2013-03-11 18:29:00,47.3,38.7,29.44,SSE,158,1.6,1.6,72,0.00,,---,0.00,VWS V13.01,2013-03-11 22:29:00,
2013-03-11 18:30:00,47.3,38.7,29.44,SSE,158,1.6,1.6,72,0.00,,---,0.00,VWS V13.01,2013-03-11 22:30:00,
2013-03-11 18:32:00,47.3,38.7,29.44,South,180,1.3,2.5,72,0.00,,---,0.00,VWS V13.01,2013-03-11 22:32:00,
2013-03-11 18:33:00,47.3,38.7,29.44,South,180,1.3,1.3,72,0.00,,---,0.00,VWS V13.01,2013-03-11 22:33:00,
2013-03-11 18:34:00,47.3,38.7,29.44,South,180,3.4,3.4,72,0.00,,---,0.00,VWS V13.01,2013-03-11 22:34:00,
2013-03-11 18:35:00,47.3,38.7,29.44,South,180,3.4,3.4,72,0.00,,---,0.00,VWS V13.01,2013-03-11 22:35:00,
2013-03-11 18:37:00,46.8,38.6,29.44,SSE,158,2.7,2.7,73,0.00,,---,0.00,VWS V13.01,2013-03-11 22:37:00,
2013-03-11 18:38:00,46.8,38.6,29.44,SSE,158,2.7,2.7,73,0.00,,---,0.00,VWS V13.01,2013-03-11 22:38:00,
2013-03-11 18:40:00,46.8,38.6,29.44,SSE,158,3.1,3.1,73,0.00,,---,0.00,VWS V13.01,2013-03-11 22:40:00,
2013-03-11 18:42:00,46.8,38.6,29.44,South,180,0.0,1.3,73,0.00,,---,0.00,VWS V13.01,2013-03-11 22:42:00,
2013-03-11 18:43:00,46.6,38.4,29.44,South,180,0.0,0.0,73,0.00,,---,0.00,VWS V13.01,2013-03-11 22:43:00,
2013-03-11 18:45:00,46.6,38.4,29.44,South,180,2.5,2.5,73,0.00,,---,0.00,VWS V13.01,2013-03-11 22:45:00,
2013-03-11 18:47:00,46.6,38.4,29.44,SE,135,2.9,2.9,73,0.00,,---,0.00,VWS V13.01,2013-03-11 22:47:00,
2013-03-11 18:48:00,46.4,38.6,29.44,SE,135,2.9,2.9,74,0.00,,---,0.00,VWS V13.01,2013-03-11 22:48:00,
2013-03-11 18:50:00,46.4,38.6,29.44,South,180,2.0,2.0,74,0.00,,---,0.00,VWS V13.01,2013-03-11 22:50:00,
2013-03-11 18:52:00,46.4,38.6,29.44,SSW,202,2.5,2.7,74,0.00,,---,0.00,VWS V13.01,2013-03-11 22:52:00,
2013-03-11 18:53:00,46.4,38.6,29.44,SSE,158,2.9,2.9,74,0.00,,---,0.00,VWS V13.01,2013-03-11 22:53:00,
2013-03-11 18:55:00,46.4,38.6,29.44,SE,135,1.3,1.3,74,0.00,,---,0.00,VWS V13.01,2013-03-11 22:55:00,
2013-03-11 18:58:00,46.4,38.6,29.44,SSE,158,2.9,2.9,74,0.00,,---,0.00,VWS V13.01,2013-03-11 22:58:00,
2013-03-11 19:00:00,46.2,38.8,29.44,South,180,1.6,1.6,75,0.00,,---,0.00,VWS V13.01,2013-03-11 23:00:00,
2013-03-11 19:03:00,46.2,38.8,29.44,SSE,158,0.0,0.0,75,0.00,,---,0.00,VWS V13.01,2013-03-11 23:03:00,
2013-03-11 19:04:00,46.2,38.8,29.44,SSE,158,2.2,2.2,75,0.00,,---,0.00,VWS V13.01,2013-03-11 23:04:00,
2013-03-11 19:05:00,46.0,38.6,29.44,SE,135,0.0,0.0,75,0.00,,---,0.00,VWS V13.01,2013-03-11 23:05:00,
2013-03-11 19:08:00,46.0,38.6,29.44,SE,135,3.6,3.6,75,0.00,,---,0.00,VWS V13.01,2013-03-11 23:08:00,
2013-03-11 19:09:00,46.0,38.6,29.44,South,180,2.5,3.6,75,0.00,,---,0.00,VWS V13.01,2013-03-11 23:09:00,
2013-03-11 19:10:00,46.0,38.6,29.44,SSE,158,2.5,2.5,75,0.00,,---,0.00,VWS V13.01,2013-03-11 23:10:00,
2013-03-11 19:13:00,46.0,38.9,29.44,SSE,158,4.0,4.0,76,0.00,,---,0.00,VWS V13.01,2013-03-11 23:13:00,
2013-03-11 19:14:00,46.0,38.9,29.44,SSE,158,3.1,4.0,76,0.00,,---,0.00,VWS V13.01,2013-03-11 23:14:00,
2013-03-11 19:15:00,46.0,38.9,29.44,SSE,158,1.1,3.6,76,0.00,,---,0.00,VWS V13.01,2013-03-11 23:15:00,
2013-03-11 19:16:00,46.0,38.9,29.44,SSE,158,1.1,1.1,76,0.00,,---,0.00,VWS V13.01,2013-03-11 23:16:00,
2013-03-11 19:18:00,46.0,38.9,29.44,South,180,2.0,2.0,76,0.00,,---,0.00,VWS V13.01,2013-03-11 23:18:00,
2013-03-11 19:19:00,46.0,38.9,29.44,South,180,2.0,2.0,76,0.00,,---,0.00,VWS V13.01,2013-03-11 23:19:00,
2013-03-11 19:20:00,46.0,38.9,29.44,South,180,1.1,2.0,76,0.00,,---,0.00,VWS V13.01,2013-03-11 23:20:00,
2013-03-11 19:21:00,46.0,38.9,29.44,SSE,158,2.5,2.5,76,0.00,,---,0.00,VWS V13.01,2013-03-11 23:21:00,
2013-03-11 19:23:00,46.0,38.9,29.41,South,180,2.7,2.7,76,0.00,,---,0.00,VWS V13.01,2013-03-11 23:23:00,
2013-03-11 19:24:00,46.0,38.9,29.41,SSE,158,3.1,3.1,76,0.00,,---,0.00,VWS V13.01,2013-03-11 23:24:00,
2013-03-11 19:25:00,46.0,38.9,29.41,SSE,158,1.1,1.1,76,0.00,,---,0.00,VWS V13.01,2013-03-11 23:25:00,
2013-03-11 19:27:00,46.0,38.9,29.41,SSE,158,1.1,1.1,76,0.00,,---,0.00,VWS V13.01,2013-03-11 23:27:00,
2013-03-11 19:28:00,46.0,38.9,29.41,SSE,158,1.1,1.1,76,0.00,,---,0.00,VWS V13.01,2013-03-11 23:28:00,
2013-03-11 19:29:00,45.9,39.1,29.41,SSE,158,1.1,1.1,77,0.00,,---,0.00,VWS V13.01,2013-03-11 23:29:00,
2013-03-11 19:31:00,45.9,39.1,29.41,SE,135,0.0,0.0,77,0.00,,---,0.00,VWS V13.01,2013-03-11 23:31:00,
2013-03-11 19:32:00,45.9,39.1,29.41,SE,135,1.1,1.1,77,0.00,,---,0.00,VWS V13.01,2013-03-11 23:32:00,
2013-03-11 19:34:00,45.9,39.1,29.41,SSE,158,1.3,1.3,77,0.00,,---,0.00,VWS V13.01,2013-03-11 23:34:00,
2013-03-11 19:36:00,45.9,39.1,29.41,SSE,158,1.1,1.1,77,0.00,,---,0.00,VWS V13.01,2013-03-11 23:36:00,
2013-03-11 19:37:00,45.9,39.1,29.44,ESE,112,1.3,1.3,77,0.00,,---,0.00,VWS V13.01,2013-03-11 23:37:00,
2013-03-11 19:39:00,45.9,39.1,29.44,ESE,112,1.3,1.3,77,0.00,,---,0.00,VWS V13.01,2013-03-11 23:39:00,
2013-03-11 19:41:00,45.9,39.1,29.44,SSE,158,3.1,4.9,77,0.00,,---,0.00,VWS V13.01,2013-03-11 23:41:00,
2013-03-11 19:42:00,45.9,39.1,29.44,SSE,158,3.1,3.1,77,0.00,,---,0.00,VWS V13.01,2013-03-11 23:42:00,
2013-03-11 19:44:00,45.9,39.1,29.44,SSE,158,1.6,1.6,77,0.00,,---,0.00,VWS V13.01,2013-03-11 23:44:00,
2013-03-11 19:47:00,45.9,39.1,29.44,SSE,158,2.2,2.2,77,0.00,,---,0.00,VWS V13.01,2013-03-11 23:47:00,
2013-03-11 19:49:00,45.9,39.1,29.44,SSE,158,2.0,2.0,77,0.00,,---,0.00,VWS V13.01,2013-03-11 23:49:00,
2013-03-11 19:52:00,45.9,39.4,29.44,SSW,202,0.0,0.0,78,0.00,,---,0.00,VWS V13.01,2013-03-11 23:52:00,
2013-03-11 19:53:00,45.9,39.4,29.44,SSE,158,2.5,2.5,78,0.00,,---,0.00,VWS V13.01,2013-03-11 23:53:00,
2013-03-11 19:54:00,45.9,39.7,29.44,SSE,158,3.1,3.1,79,0.00,,---,0.00,VWS V13.01,2013-03-11 23:54:00,
2013-03-11 19:58:00,45.9,39.7,29.44,SSE,158,0.0,0.0,79,0.00,,---,0.00,VWS V13.01,2013-03-11 23:58:00,
2013-03-11 19:59:00,45.7,39.5,29.44,SE,135,1.1,1.1,79,0.00,,---,0.00,VWS V13.01,2013-03-11 23:59:00,
2013-03-11 20:00:00,45.7,39.5,29.44,SE,135,1.1,1.1,79,0.00,,---,0.00,VWS V13.01,2013-03-12 00:00:00,
2013-03-11 20:03:00,45.7,39.5,29.44,SSE,158,2.0,2.7,79,0.00,,---,0.00,VWS V13.01,2013-03-12 00:03:00,
2013-03-11 20:04:00,45.7,39.5,29.44,SSE,158,2.0,2.9,79,0.00,,---,0.00,VWS V13.01,2013-03-12 00:04:00,
2013-03-11 20:05:00,45.7,39.5,29.44,SSE,158,2.0,2.0,79,0.00,,---,0.00,VWS V13.01,2013-03-12 00:05:00,
2013-03-11 20:08:00,45.7,39.5,29.41,SSE,158,3.1,3.1,79,0.00,,---,0.00,VWS V13.01,2013-03-12 00:08:00,
2013-03-11 20:10:00,45.7,39.9,29.41,SE,135,3.8,3.8,80,0.00,,---,0.00,VWS V13.01,2013-03-12 00:10:00,
2013-03-11 20:13:00,45.7,39.9,29.41,SSE,158,0.9,2.9,80,0.00,,---,0.00,VWS V13.01,2013-03-12 00:13:00,
2013-03-11 20:15:00,45.7,39.9,29.41,South,180,3.1,3.1,80,0.00,,---,0.00,VWS V13.01,2013-03-12 00:15:00,
2013-03-11 20:18:00,45.7,39.9,29.41,SSE,158,1.6,1.6,80,0.00,,---,0.00,VWS V13.01,2013-03-12 00:18:00,
2013-03-11 20:20:00,45.7,39.9,29.41,SSE,158,1.6,1.6,80,0.00,,---,0.00,VWS V13.01,2013-03-12 00:20:00,
2013-03-11 20:23:00,45.7,39.9,29.44,SSE,158,5.6,5.6,80,0.00,,---,0.00,VWS V13.01,2013-03-12 00:23:00,
2013-03-11 20:25:00,45.7,39.9,29.44,SSE,158,2.9,2.9,80,0.00,,---,0.00,VWS V13.01,2013-03-12 00:25:00,
2013-03-11 20:26:00,45.7,39.9,29.44,SSE,158,2.9,2.9,80,0.00,,---,0.00,VWS V13.01,2013-03-12 00:26:00,
2013-03-11 20:28:00,45.7,39.9,29.44,SSE,158,0.9,0.9,80,0.00,,---,0.00,VWS V13.01,2013-03-12 00:28:00,
2013-03-11 20:30:00,45.5,40.0,29.44,SSE,158,2.0,2.0,81,0.00,,---,0.00,VWS V13.01,2013-03-12 00:30:00,
2013-03-11 20:31:00,45.5,40.0,29.44,SSE,158,2.0,2.0,81,0.00,,---,0.00,VWS V13.01,2013-03-12 00:31:00,
2013-03-11 20:33:00,45.5,40.0,29.44,SSE,158,3.1,3.1,81,0.00,,---,0.00,VWS V13.01,2013-03-12 00:33:00,
2013-03-11 20:35:00,45.5,40.0,29.44,SSE,158,2.9,2.9,81,0.00,,---,0.00,VWS V13.01,2013-03-12 00:35:00,
2013-03-11 20:36:00,45.5,40.0,29.44,SSE,158,2.2,2.7,81,0.00,,---,0.00,VWS V13.01,2013-03-12 00:36:00,
2013-03-11 20:38:00,45.5,40.0,29.41,South,180,2.5,2.7,81,0.00,,---,0.00,VWS V13.01,2013-03-12 00:38:00,
2013-03-11 20:39:00,45.5,40.0,29.41,South,180,2.5,2.5,81,0.00,,---,0.00,VWS V13.01,2013-03-12 00:39:00,
2013-03-11 20:40:00,45.5,40.0,29.41,SSE,158,2.0,2.0,81,0.00,,---,0.00,VWS V13.01,2013-03-12 00:40:00,
2013-03-11 20:42:00,45.5,40.0,29.41,South,180,0.0,2.0,81,0.00,,---,0.00,VWS V13.01,2013-03-12 00:42:00,
2013-03-11 20:44:00,45.5,40.3,29.41,SSW,202,2.7,2.7,82,0.00,,---,0.00,VWS V13.01,2013-03-12 00:44:00,
2013-03-11 20:45:00,45.5,40.3,29.41,SSE,158,2.7,2.7,82,0.00,,---,0.00,VWS V13.01,2013-03-12 00:45:00,
2013-03-11 20:47:00,45.5,40.3,29.41,SSE,158,1.6,2.7,82,0.00,,---,0.00,VWS V13.01,2013-03-12 00:47:00,
2013-03-11 20:49:00,45.5,40.3,29.41,SE,135,0.9,0.9,82,0.00,,---,0.00,VWS V13.01,2013-03-12 00:49:00,
2013-03-11 20:51:00,45.5,40.3,29.41,SSE,158,4.0,4.0,82,0.00,,---,0.00,VWS V13.01,2013-03-12 00:51:00,
2013-03-11 20:53:00,45.5,40.0,29.41,SSE,158,2.7,2.7,81,0.00,,---,0.00,VWS V13.01,2013-03-12 00:53:00,
2013-03-11 20:54:00,45.5,40.0,29.41,SSE,158,1.3,1.3,81,0.00,,---,0.00,VWS V13.01,2013-03-12 00:54:00,
2013-03-11 20:57:00,45.5,40.0,29.41,South,180,3.8,3.8,81,0.00,,---,0.00,VWS V13.01,2013-03-12 00:57:00,
2013-03-11 20:58:00,45.5,40.0,29.41,South,180,1.6,1.6,81,0.00,,---,0.00,VWS V13.01,2013-03-12 00:58:00,
2013-03-11 20:59:00,45.5,40.0,29.41,South,180,1.6,1.6,81,0.00,,---,0.00,VWS V13.01,2013-03-12 00:59:00,
2013-03-11 21:02:00,45.5,40.0,29.41,SSE,158,2.7,2.7,81,0.00,,---,0.00,VWS V13.01,2013-03-12 01:02:00,
2013-03-11 21:03:00,45.5,40.0,29.41,SSE,158,2.7,2.7,81,0.00,,---,0.00,VWS V13.01,2013-03-12 01:03:00,
2013-03-11 21:04:00,45.5,40.0,29.41,SSW,202,0.0,2.7,81,0.00,,---,0.00,VWS V13.01,2013-03-12 01:04:00,
2013-03-11 21:07:00,45.5,40.0,29.41,SSE,158,1.1,1.1,81,0.00,,---,0.00,VWS V13.01,2013-03-12 01:07:00,
2013-03-11 21:08:00,45.5,40.0,29.41,SW,225,1.6,1.6,81,0.00,,---,0.00,VWS V13.01,2013-03-12 01:08:00,
2013-03-11 21:09:00,45.5,40.0,29.41,SSE,158,4.0,4.0,81,0.00,,---,0.00,VWS V13.01,2013-03-12 01:09:00,
2013-03-11 21:10:00,45.5,40.0,29.41,SSE,158,4.0,4.0,81,0.00,,---,0.00,VWS V13.01,2013-03-12 01:10:00,
2013-03-11 21:12:00,45.5,40.0,29.41,SSE,158,1.6,1.6,81,0.00,,---,0.00,VWS V13.01,2013-03-12 01:12:00,
2013-03-11 21:13:00,45.5,40.0,29.44,SSE,158,1.1,1.6,81,0.00,,---,0.00,VWS V13.01,2013-03-12 01:13:00,
2013-03-11 21:14:00,45.5,40.0,29.44,SSE,158,1.1,1.1,81,0.00,,---,0.00,VWS V13.01,2013-03-12 01:14:00,
2013-03-11 21:15:00,45.3,40.5,29.44,SSE,158,1.1,1.1,83,0.00,,---,0.00,VWS V13.01,2013-03-12 01:15:00,
2013-03-11 21:17:00,45.3,40.5,29.44,SSE,158,4.7,4.7,83,0.00,,---,0.00,VWS V13.01,2013-03-12 01:17:00,
2013-03-11 21:18:00,45.3,40.5,29.44,SSE,158,4.7,4.7,83,0.00,,---,0.00,VWS V13.01,2013-03-12 01:18:00,
2013-03-11 21:19:00,45.3,40.5,29.44,South,180,2.5,4.7,83,0.00,,---,0.00,VWS V13.01,2013-03-12 01:19:00,
2013-03-11 21:20:00,45.3,40.5,29.44,SSE,158,2.0,2.5,83,0.00,,---,0.00,VWS V13.01,2013-03-12 01:20:00,
2013-03-11 21:22:00,45.3,40.5,29.41,South,180,1.3,2.0,83,0.00,,---,0.00,VWS V13.01,2013-03-12 01:22:00,
2013-03-11 21:24:00,45.3,40.5,29.41,SSE,158,0.0,0.0,83,0.00,,---,0.00,VWS V13.01,2013-03-12 01:24:00,
2013-03-11 21:25:00,45.3,40.5,29.41,South,180,2.5,2.5,83,0.00,,---,0.00,VWS V13.01,2013-03-12 01:25:00,
2013-03-11 21:27:00,45.3,40.5,29.41,South,180,2.5,2.5,83,0.00,,---,0.00,VWS V13.01,2013-03-12 01:27:00,
2013-03-11 21:29:00,45.3,40.5,29.41,ESE,112,0.9,0.9,83,0.00,,---,0.00,VWS V13.01,2013-03-12 01:29:00,
2013-03-11 21:30:00,45.3,40.5,29.41,SSE,158,1.3,1.3,83,0.00,,---,0.00,VWS V13.01,2013-03-12 01:30:00,
2013-03-11 21:33:00,45.3,40.8,29.41,SSE,158,2.5,2.5,84,0.00,,---,0.00,VWS V13.01,2013-03-12 01:33:00,